Observation data for Umbarger on 05/24/2020      Previous  Date  Next       Current Mesonet Observations  Soil Data  Daily Summary Page  Observations in Plain Language
KUM1 240500Z 13015KT 17/12 A2984 RMK A01 T01700115  RH  070%=      5-min Rain = 0
KUM1 240501Z 13014KT 17/12 A2984 RMK A01 T01700116  RH  070%=      5-min Rain = 0
KUM1 240502Z 13014KT 17/12 A2984 RMK A01 T01700115  RH  070%=      5-min Rain = 0
KUM1 240503Z 13014KT 17/12 A2984 RMK A01 T01690115  RH  071%=      5-min Rain = 0
KUM1 240504Z 13014KT 17/12 A2984 RMK A01 T01690115  RH  071%=      5-min Rain = 0
KUM1 240505Z 13014KT 17/12 A2984 RMK A01 T01690115  RH  071%=      5-min Rain = 0
KUM1 240506Z 13015KT 17/12 A2984 RMK A01 T01680115  RH  071%=      5-min Rain = 0
KUM1 240507Z 12014KT 17/12 A2984 RMK A01 T01680115  RH  071%=      5-min Rain = 0
KUM1 240508Z 13015KT 17/12 A2984 RMK A01 T01670115  RH  071%=      5-min Rain = 0
KUM1 240509Z 13015KT 17/12 A2984 RMK A01 T01670115  RH  071%=      5-min Rain = 0
KUM1 240510Z 13014KT 17/12 A2984 RMK A01 T01670115  RH  071%=      5-min Rain = 0
KUM1 240511Z 13014G19KT 17/12 A2984 RMK A01 T01670115  RH  071%=      5-min Rain = 0
KUM1 240512Z 12014KT 17/12 A2984 RMK A01 T01670115  RH  071%=      5-min Rain = 0
KUM1 240513Z 13014KT 17/11 A2984 RMK A01 T01670114  RH  071%=      5-min Rain = 0
KUM1 240514Z 13015KT 17/11 A2984 RMK A01 T01670114  RH  071%=      5-min Rain = 0
KUM1 240515Z 13014KT 17/11 A2984 RMK A01 T01670114  RH  071%=      5-min Rain = 0
KUM1 240516Z 13014KT 17/11 A2984 RMK A01 T01670114  RH  071%=      5-min Rain = 0
KUM1 240517Z 13014KT 17/11 A2984 RMK A01 T01670114  RH  071%=      5-min Rain = 0
KUM1 240518Z 13014KT 17/12 A2984 RMK A01 T01670115  RH  071%=      5-min Rain = 0
KUM1 240519Z 13012KT 17/12 A2984 RMK A01 T01670115  RH  071%=      5-min Rain = 0
KUM1 240520Z 13012KT 17/11 A2984 RMK A01 T01660114  RH  071%=      5-min Rain = 0
KUM1 240521Z 13012KT 17/11 A2984 RMK A01 T01660114  RH  072%=      5-min Rain = 0
KUM1 240522Z 13014KT 17/11 A2984 RMK A01 T01650114  RH  072%=      5-min Rain = 0
KUM1 240523Z 13013KT 17/11 A2984 RMK A01 T01660114  RH  072%=      5-min Rain = 0
KUM1 240524Z 13014KT 17/11 A2984 RMK A01 T01660114  RH  071%=      5-min Rain = 0
KUM1 240525Z 13014KT 17/11 A2984 RMK A01 T01660114  RH  071%=      5-min Rain = 0
KUM1 240526Z 13014KT 17/11 A2984 RMK A01 T01660114  RH  071%=      5-min Rain = 0
KUM1 240527Z 13014KT 17/11 A2984 RMK A01 T01670114  RH  071%=      5-min Rain = 0
KUM1 240528Z 13012KT 17/12 A2984 RMK A01 T01670115  RH  071%=      5-min Rain = 0
KUM1 240529Z 13012KT 17/11 A2984 RMK A01 T01670114  RH  071%=      5-min Rain = 0
KUM1 240530Z 14013KT 17/11 A2984 RMK A01 T01660114  RH  071%=      5-min Rain = 0
KUM1 240531Z 13014KT 17/12 A2984 RMK A01 T01660115  RH  072%=      5-min Rain = 0
KUM1 240532Z 14013KT 17/12 A2984 RMK A01 T01660115  RH  072%=      5-min Rain = 0
KUM1 240533Z 14012KT 17/11 A2984 RMK A01 T01660114  RH  071%=      5-min Rain = 0
KUM1 240534Z 14013KT 17/12 A2984 RMK A01 T01660115  RH  071%=      5-min Rain = 0
KUM1 240535Z 14013KT 17/12 A2984 RMK A01 T01660115  RH  072%=      5-min Rain = 0
KUM1 240536Z 14013KT 17/11 A2983 RMK A01 T01660114  RH  072%=      5-min Rain = 0
KUM1 240537Z 14014KT 17/12 A2984 RMK A01 T01660115  RH  072%=      5-min Rain = 0
KUM1 240538Z 14014KT 17/12 A2984 RMK A01 T01660115  RH  072%=      5-min Rain = 0
KUM1 240539Z 14014KT 17/12 A2983 RMK A01 T01670115  RH  072%=      5-min Rain = 0
KUM1 240540Z 14014KT 17/12 A2984 RMK A01 T01660115  RH  071%=      5-min Rain = 0
KUM1 240541Z 15014KT 17/12 A2984 RMK A01 T01670115  RH  071%=      5-min Rain = 0
KUM1 240542Z 15016KT 17/11 A2984 RMK A01 T01670114  RH  071%=      5-min Rain = 0
KUM1 240543Z 15015KT 17/12 A2984 RMK A01 T01670115  RH  071%=      5-min Rain = 0
KUM1 240544Z 15014KT 17/12 A2984 RMK A01 T01670115  RH  071%=      5-min Rain = 0
KUM1 240545Z 15013KT 17/11 A2984 RMK A01 T01670114  RH  071%=      5-min Rain = 0
KUM1 240546Z 15014KT 17/11 A2984 RMK A01 T01670114  RH  071%=      5-min Rain = 0
KUM1 240547Z 15015KT 17/11 A2984 RMK A01 T01660114  RH  071%=      5-min Rain = 0
KUM1 240548Z 15016KT 17/11 A2984 RMK A01 T01660114  RH  071%=      5-min Rain = 0
KUM1 240549Z 15014KT 17/11 A2984 RMK A01 T01670113  RH  071%=      5-min Rain = 0
KUM1 240550Z 16013KT 17/11 A2984 RMK A01 T01670113  RH  070%=      5-min Rain = 0
KUM1 240551Z 16012KT 17/11 A2984 RMK A01 T01670114  RH  071%=      5-min Rain = 0
KUM1 240552Z 16013KT 17/11 A2984 RMK A01 T01670113  RH  071%=      5-min Rain = 0
KUM1 240553Z 16014KT 17/11 A2984 RMK A01 T01670113  RH  071%=      5-min Rain = 0
KUM1 240554Z 16012KT 17/11 A2984 RMK A01 T01670113  RH  071%=      5-min Rain = 0
KUM1 240555Z 15014KT 17/11 A2984 RMK A01 T01670113  RH  071%=      5-min Rain = 0
KUM1 240556Z 15013KT 17/11 A2984 RMK A01 T01670113  RH  070%=      5-min Rain = 0
KUM1 240557Z 15013KT 17/11 A2984 RMK A01 T01670113  RH  070%=      5-min Rain = 0
KUM1 240558Z 15014KT 17/11 A2984 RMK A01 T01670113  RH  070%=      5-min Rain = 0
KUM1 240559Z 16013KT 17/11 A2984 RMK A01 T01670113  RH  070%=      5-min Rain = 0
KUM1 240600Z 15014KT 17/11 A2984 RMK A01 T01670112  RH  070%=      5-min Rain = 0
KUM1 240601Z 15014KT 17/11 A2984 RMK A01 T01670112  RH  070%=      5-min Rain = 0
KUM1 240602Z 15014KT 17/11 A2984 RMK A01 T01670112  RH  070%=      5-min Rain = 0
KUM1 240603Z 15014KT 17/11 A2984 RMK A01 T01670112  RH  070%=      5-min Rain = 0
KUM1 240604Z 15014KT 17/11 A2984 RMK A01 T01670112  RH  070%=      5-min Rain = 0
KUM1 240605Z 15015KT 17/11 A2984 RMK A01 T01670112  RH  070%=      5-min Rain = 0
KUM1 240606Z 15014KT 17/11 A2984 RMK A01 T01670112  RH  070%=      5-min Rain = 0
KUM1 240607Z 15012KT 17/11 A2984 RMK A01 T01670112  RH  070%=      5-min Rain = 0
KUM1 240608Z 14012KT 17/11 A2984 RMK A01 T01660112  RH  070%=      5-min Rain = 0
KUM1 240609Z 15012KT 17/11 A2984 RMK A01 T01660112  RH  070%=      5-min Rain = 0
KUM1 240610Z 14013KT 17/11 A2984 RMK A01 T01650112  RH  071%=      5-min Rain = 0
KUM1 240611Z 15011KT 17/11 A2984 RMK A01 T01650112  RH  071%=      5-min Rain = 0
KUM1 240612Z 14012KT 17/11 A2984 RMK A01 T01650112  RH  071%=      5-min Rain = 0
KUM1 240613Z 14013KT 17/11 A2984 RMK A01 T01650112  RH  071%=      5-min Rain = 0
KUM1 240614Z 15014KT 17/11 A2984 RMK A01 T01650112  RH  071%=      5-min Rain = 0
KUM1 240615Z 15014KT 17/11 A2984 RMK A01 T01650111  RH  070%=      5-min Rain = 0
KUM1 240616Z 15013KT 17/11 A2984 RMK A01 T01660111  RH  070%=      5-min Rain = 0
KUM1 240617Z 15012KT 17/11 A2984 RMK A01 T01650111  RH  070%=      5-min Rain = 0
KUM1 240618Z 15012KT 17/11 A2984 RMK A01 T01650111  RH  070%=      5-min Rain = 0
KUM1 240619Z 16012KT 17/11 A2984 RMK A01 T01650111  RH  070%=      5-min Rain = 0
KUM1 240620Z 16012KT 17/11 A2984 RMK A01 T01650110  RH  070%=      5-min Rain = 0
KUM1 240621Z 15013KT 17/11 A2984 RMK A01 T01660110  RH  070%=      5-min Rain = 0
KUM1 240622Z 15014KT 17/11 A2984 RMK A01 T01660110  RH  069%=      5-min Rain = 0
KUM1 240623Z 15014G19KT 17/11 A2984 RMK A01 T01670109  RH  069%=      5-min Rain = 0
KUM1 240624Z 16014G19KT 17/11 A2984 RMK A01 T01680109  RH  068%=      5-min Rain = 0
KUM1 240625Z 16012G18KT 17/11 A2984 RMK A01 T01680109  RH  068%=      5-min Rain = 0
KUM1 240626Z 16014KT 17/11 A2984 RMK A01 T01680109  RH  068%=      5-min Rain = 0
KUM1 240627Z 16014KT 17/11 A2984 RMK A01 T01680109  RH  068%=      5-min Rain = 0
KUM1 240628Z 16014KT 17/11 A2984 RMK A01 T01680108  RH  068%=      5-min Rain = 0
KUM1 240629Z 16013KT 17/11 A2984 RMK A01 T01690109  RH  067%=      5-min Rain = 0
KUM1 240630Z 16014G20KT 17/11 A2983 RMK A01 T01690108  RH  067%=      5-min Rain = 0
KUM1 240631Z 16016KT 17/11 A2983 RMK A01 T01690108  RH  067%=      5-min Rain = 0
KUM1 240632Z 16013KT 17/11 A2983 RMK A01 T01690108  RH  067%=      5-min Rain = 0
KUM1 240633Z 17014G19KT 17/11 A2983 RMK A01 T01690108  RH  067%=      5-min Rain = 0
KUM1 240634Z 17014KT 17/11 A2983 RMK A01 T01690108  RH  067%=      5-min Rain = 0
KUM1 240635Z 17015KT 17/11 A2983 RMK A01 T01690108  RH  067%=      5-min Rain = 0
KUM1 240636Z 17015KT 17/11 A2983 RMK A01 T01690107  RH  067%=      5-min Rain = 0
KUM1 240637Z 17015KT 17/11 A2983 RMK A01 T01700108  RH  067%=      5-min Rain = 0
KUM1 240638Z 17015KT 17/11 A2983 RMK A01 T01700107  RH  066%=      5-min Rain = 0
KUM1 240639Z 17014KT 17/11 A2983 RMK A01 T01700107  RH  066%=      5-min Rain = 0
KUM1 240640Z 17015KT 17/11 A2983 RMK A01 T01700107  RH  066%=      5-min Rain = 0
KUM1 240641Z 17015KT 17/11 A2983 RMK A01 T01710106  RH  066%=      5-min Rain = 0
KUM1 240642Z 17017KT 17/11 A2983 RMK A01 T01720106  RH  065%=      5-min Rain = 0
KUM1 240643Z 17016KT 17/11 A2983 RMK A01 T01730106  RH  065%=      5-min Rain = 0
KUM1 240644Z 17015KT 17/11 A2983 RMK A01 T01740106  RH  064%=      5-min Rain = 0
KUM1 240645Z 17015KT 17/11 A2983 RMK A01 T01740106  RH  064%=      5-min Rain = 0
KUM1 240646Z 17016KT 17/11 A2983 RMK A01 T01740106  RH  064%=      5-min Rain = 0
KUM1 240647Z 17018G23KT 17/11 A2983 RMK A01 T01740105  RH  064%=      5-min Rain = 0
KUM1 240648Z 17016KT 18/10 A2983 RMK A01 T01750104  RH  063%=      5-min Rain = 0
KUM1 240649Z 17017KT 18/10 A2982 RMK A01 T01760104  RH  063%=      5-min Rain = 0
KUM1 240650Z 17016G21KT 18/10 A2982 RMK A01 T01770103  RH  062%=      5-min Rain = 0
KUM1 240651Z 17018G24KT 18/10 A2982 RMK A01 T01780103  RH  061%=      5-min Rain = 0
KUM1 240652Z 17021KT 18/10 A2982 RMK A01 T01790102  RH  060%=      5-min Rain = 0
KUM1 240653Z 17022KT 18/10 A2982 RMK A01 T01820101  RH  059%=      5-min Rain = 0
KUM1 240654Z 17022KT 18/10 A2982 RMK A01 T01830101  RH  059%=      5-min Rain = 0
KUM1 240655Z 17021G26KT 18/10 A2982 RMK A01 T01840101  RH  058%=      5-min Rain = 0
KUM1 240656Z 17021G26KT 19/10 A2982 RMK A01 T01850100  RH  058%=      5-min Rain = 0
KUM1 240657Z 17019G26KT 19/10 A2982 RMK A01 T01860100  RH  058%=      5-min Rain = 0
KUM1 240658Z 17020KT 19/10 A2982 RMK A01 T01850100  RH  057%=      5-min Rain = 0
KUM1 240659Z 18021G26KT 19/10 A2982 RMK A01 T01860100  RH  057%=      5-min Rain = 0
KUM1 240700Z 18022KT 19/10 A2982 RMK A01 T01860101  RH  058%=      5-min Rain = 0
KUM1 240701Z 17022G27KT 19/10 A2982 RMK A01 T01870102  RH  058%=      5-min Rain = 0
KUM1 240702Z 18022KT 19/10 A2982 RMK A01 T01880102  RH  058%=      5-min Rain = 0
KUM1 240703Z 18024KT 19/10 A2982 RMK A01 T01880103  RH  058%=      5-min Rain = 0
KUM1 240704Z 18021KT 19/10 A2982 RMK A01 T01880103  RH  058%=      5-min Rain = 0
KUM1 240705Z 18023G28KT 19/10 A2982 RMK A01 T01880104  RH  058%=      5-min Rain = 0
KUM1 240706Z 17022G27KT 19/11 A2982 RMK A01 T01880105  RH  058%=      5-min Rain = 0
KUM1 240707Z 17023KT 19/11 A2982 RMK A01 T01880106  RH  059%=      5-min Rain = 0
KUM1 240708Z 18022G27KT 19/11 A2982 RMK A01 T01880107  RH  059%=      5-min Rain = 0
KUM1 240709Z 18022G27KT 19/11 A2982 RMK A01 T01880107  RH  059%=      5-min Rain = 0
KUM1 240710Z 18023KT 19/11 A2982 RMK A01 T01880107  RH  059%=      5-min Rain = 0
KUM1 240711Z 18022G27KT 19/11 A2982 RMK A01 T01890107  RH  059%=      5-min Rain = 0
KUM1 240712Z 18022KT 19/11 A2982 RMK A01 T01880108  RH  059%=      5-min Rain = 0
KUM1 240713Z 18023G28KT 19/11 A2982 RMK A01 T01880108  RH  060%=      5-min Rain = 0
KUM1 240714Z 18021G27KT 19/11 A2982 RMK A01 T01890109  RH  060%=      5-min Rain = 0
KUM1 240715Z 18023KT 19/11 A2982 RMK A01 T01890109  RH  060%=      5-min Rain = 0
KUM1 240716Z 18024G30KT 19/11 A2982 RMK A01 T01890109  RH  060%=      5-min Rain = 0
KUM1 240717Z 18024KT 19/11 A2982 RMK A01 T01890110  RH  060%=      5-min Rain = 0
KUM1 240718Z 18022KT 19/11 A2982 RMK A01 T01890110  RH  060%=      5-min Rain = 0
KUM1 240719Z 18022G27KT 19/11 A2982 RMK A01 T01890110  RH  060%=      5-min Rain = 0
KUM1 240720Z 18022KT 19/11 A2982 RMK A01 T01890110  RH  060%=      5-min Rain = 0
KUM1 240721Z 18023G29KT 19/11 A2982 RMK A01 T01890111  RH  060%=      5-min Rain = 0
KUM1 240722Z 18023G29KT 19/11 A2982 RMK A01 T01890111  RH  061%=      5-min Rain = 0
KUM1 240723Z 18022G27KT 19/11 A2982 RMK A01 T01890111  RH  060%=      5-min Rain = 0
KUM1 240724Z 18020G26KT 19/11 A2982 RMK A01 T01890111  RH  061%=      5-min Rain = 0
KUM1 240725Z 18022G27KT 19/11 A2982 RMK A01 T01880111  RH  061%=      5-min Rain = 0
KUM1 240726Z 18021KT 19/11 A2982 RMK A01 T01880112  RH  061%=      5-min Rain = 0
KUM1 240727Z 18021KT 19/11 A2982 RMK A01 T01880111  RH  061%=      5-min Rain = 0
KUM1 240728Z 18021KT 19/11 A2982 RMK A01 T01880111  RH  061%=      5-min Rain = 0
KUM1 240729Z 18021G26KT 19/11 A2982 RMK A01 T01880112  RH  061%=      5-min Rain = 0
KUM1 240730Z 18020G25KT 19/11 A2983 RMK A01 T01870112  RH  061%=      5-min Rain = 0
KUM1 240731Z 18021G26KT 19/11 A2982 RMK A01 T01870112  RH  062%=      5-min Rain = 0
KUM1 240732Z 18019G25KT 19/11 A2983 RMK A01 T01860112  RH  062%=      5-min Rain = 0
KUM1 240733Z 18021KT 19/11 A2983 RMK A01 T01870112  RH  062%=      5-min Rain = 0
KUM1 240734Z 18020KT 19/11 A2983 RMK A01 T01860113  RH  062%=      5-min Rain = 0
KUM1 240735Z 18020KT 19/11 A2983 RMK A01 T01860113  RH  062%=      5-min Rain = 0
KUM1 240736Z 18020G25KT 19/11 A2983 RMK A01 T01860113  RH  062%=      5-min Rain = 0
KUM1 240737Z 18019KT 19/11 A2983 RMK A01 T01860113  RH  063%=      5-min Rain = 0
KUM1 240738Z 18023KT 19/11 A2983 RMK A01 T01860113  RH  063%=      5-min Rain = 0
KUM1 240739Z 18019KT 19/11 A2983 RMK A01 T01870114  RH  063%=      5-min Rain = 0
KUM1 240740Z 18021G26KT 19/11 A2983 RMK A01 T01870114  RH  063%=      5-min Rain = 0
KUM1 240741Z 18019KT 19/11 A2983 RMK A01 T01870114  RH  063%=      5-min Rain = 0
KUM1 240742Z 18020G25KT 19/11 A2983 RMK A01 T01860114  RH  063%=      5-min Rain = 0
KUM1 240743Z 18022KT 19/11 A2983 RMK A01 T01860114  RH  063%=      5-min Rain = 0
KUM1 240744Z 18022KT 19/12 A2983 RMK A01 T01870115  RH  063%=      5-min Rain = 0
KUM1 240745Z 18022KT 19/12 A2983 RMK A01 T01870115  RH  063%=      5-min Rain = 0
KUM1 240746Z 18022KT 19/12 A2983 RMK A01 T01870115  RH  063%=      5-min Rain = 0
KUM1 240747Z 18021KT 19/12 A2983 RMK A01 T01880115  RH  063%=      5-min Rain = 0
KUM1 240748Z 18020KT 19/12 A2983 RMK A01 T01870115  RH  063%=      5-min Rain = 0
KUM1 240749Z 18022KT 19/12 A2983 RMK A01 T01870115  RH  063%=      5-min Rain = 0
KUM1 240750Z 18020KT 19/12 A2983 RMK A01 T01870116  RH  063%=      5-min Rain = 0
KUM1 240751Z 18021KT 19/12 A2983 RMK A01 T01870117  RH  063%=      5-min Rain = 0
KUM1 240752Z 18022KT 19/12 A2983 RMK A01 T01870117  RH  064%=      5-min Rain = 0
KUM1 240753Z 18019KT 19/12 A2983 RMK A01 T01870117  RH  064%=      5-min Rain = 0
KUM1 240754Z 18019KT 19/12 A2983 RMK A01 T01870117  RH  064%=      5-min Rain = 0
KUM1 240755Z 18019KT 19/12 A2983 RMK A01 T01880118  RH  064%=      5-min Rain = 0
KUM1 240756Z 18019G24KT 19/12 A2983 RMK A01 T01870118  RH  064%=      5-min Rain = 0
KUM1 240757Z 18021KT 19/12 A2983 RMK A01 T01870118  RH  064%=      5-min Rain = 0
KUM1 240758Z 18020KT 19/12 A2983 RMK A01 T01880119  RH  064%=      5-min Rain = 0
KUM1 240759Z 18020KT 19/12 A2983 RMK A01 T01890119  RH  064%=      5-min Rain = 0
KUM1 240800Z 18019G25KT 19/12 A2983 RMK A01 T01890119  RH  064%=      5-min Rain = 0
KUM1 240801Z 18020KT 19/12 A2983 RMK A01 T01880119  RH  064%=      5-min Rain = 0
KUM1 240802Z 18023KT 19/12 A2983 RMK A01 T01890119  RH  064%=      5-min Rain = 0
KUM1 240803Z 18021KT 19/12 A2983 RMK A01 T01900120  RH  064%=      5-min Rain = 0
KUM1 240804Z 18020KT 19/12 A2983 RMK A01 T01900120  RH  064%=      5-min Rain = 0
KUM1 240805Z 18022KT 19/12 A2983 RMK A01 T01910120  RH  064%=      5-min Rain = 0
KUM1 240806Z 18024KT 19/12 A2983 RMK A01 T01910120  RH  064%=      5-min Rain = 0
KUM1 240807Z 18020KT 19/12 A2983 RMK A01 T01920121  RH  064%=      5-min Rain = 0
KUM1 240808Z 18024KT 19/12 A2983 RMK A01 T01920121  RH  064%=      5-min Rain = 0
KUM1 240809Z 18023KT 19/12 A2983 RMK A01 T01930122  RH  063%=      5-min Rain = 0
KUM1 240810Z 18024KT 19/12 A2983 RMK A01 T01930122  RH  063%=      5-min Rain = 0
KUM1 240811Z 18022KT 19/12 A2983 RMK A01 T01930122  RH  063%=      5-min Rain = 0
KUM1 240812Z 18021G27KT 19/12 A2984 RMK A01 T01930122  RH  063%=      5-min Rain = 0
KUM1 240813Z 18020KT 19/12 A2983 RMK A01 T01930122  RH  064%=      5-min Rain = 0
KUM1 240814Z 17022KT 19/12 A2983 RMK A01 T01920122  RH  064%=      5-min Rain = 0
KUM1 240815Z 18020KT 19/12 A2983 RMK A01 T01920123  RH  064%=      5-min Rain = 0
KUM1 240816Z 18020G28KT 19/12 A2984 RMK A01 T01910122  RH  064%=      5-min Rain = 0
KUM1 240817Z 17022G28KT 19/12 A2983 RMK A01 T01910123  RH  064%=      5-min Rain = 0
KUM1 240818Z 18021KT 19/12 A2984 RMK A01 T01910122  RH  064%=      5-min Rain = 0
KUM1 240819Z 18020KT 19/12 A2984 RMK A01 T01910122  RH  064%=      5-min Rain = 0
KUM1 240820Z 18021G27KT 19/12 A2984 RMK A01 T01910122  RH  064%=      5-min Rain = 0
KUM1 240821Z 17022G27KT 19/12 A2984 RMK A01 T01910122  RH  064%=      5-min Rain = 0
KUM1 240822Z 17023KT 19/12 A2984 RMK A01 T01910122  RH  064%=      5-min Rain = 0
KUM1 240823Z 17022KT 19/12 A2984 RMK A01 T01910122  RH  064%=      5-min Rain = 0
KUM1 240824Z 17020G25KT 19/12 A2984 RMK A01 T01910122  RH  064%=      5-min Rain = 0
KUM1 240825Z 18021KT 19/12 A2984 RMK A01 T01900122  RH  064%=      5-min Rain = 0
KUM1 240826Z 17019KT 19/12 A2984 RMK A01 T01900122  RH  065%=      5-min Rain = 0
KUM1 240827Z 17018G23KT 19/12 A2984 RMK A01 T01890122  RH  065%=      5-min Rain = 0
KUM1 240828Z 18018KT 19/12 A2984 RMK A01 T01880122  RH  066%=      5-min Rain = 0
KUM1 240829Z 17017KT 19/12 A2984 RMK A01 T01870122  RH  066%=      5-min Rain = 0
KUM1 240830Z 17021G26KT 19/12 A2984 RMK A01 T01860122  RH  066%=      5-min Rain = 0
KUM1 240831Z 17020KT 19/12 A2984 RMK A01 T01860122  RH  066%=      5-min Rain = 0
KUM1 240832Z 18020KT 19/12 A2984 RMK A01 T01870122  RH  066%=      5-min Rain = 0
KUM1 240833Z 17017KT 19/12 A2984 RMK A01 T01860122  RH  066%=      5-min Rain = 0
KUM1 240834Z 17018KT 19/12 A2984 RMK A01 T01860122  RH  066%=      5-min Rain = 0
KUM1 240835Z 18019KT 19/12 A2984 RMK A01 T01860122  RH  067%=      5-min Rain = 0
KUM1 240836Z 17019KT 19/12 A2984 RMK A01 T01850122  RH  067%=      5-min Rain = 0
KUM1 240837Z 18018KT 19/12 A2984 RMK A01 T01850122  RH  067%=      5-min Rain = 0
KUM1 240838Z 18018KT 19/12 A2984 RMK A01 T01850122  RH  067%=      5-min Rain = 0
KUM1 240839Z 18019KT 18/12 A2984 RMK A01 T01840122  RH  067%=      5-min Rain = 0
KUM1 240840Z 18019KT 18/12 A2984 RMK A01 T01840122  RH  067%=      5-min Rain = 0
KUM1 240841Z 18019KT 18/12 A2984 RMK A01 T01840122  RH  067%=      5-min Rain = 0
KUM1 240842Z 18019KT 18/12 A2984 RMK A01 T01840122  RH  067%=      5-min Rain = 0
KUM1 240843Z 18018KT 18/12 A2984 RMK A01 T01840122  RH  067%=      5-min Rain = 0
KUM1 240844Z 18019KT 18/12 A2984 RMK A01 T01830121  RH  067%=      5-min Rain = 0
KUM1 240845Z 18016KT 18/12 A2984 RMK A01 T01830121  RH  067%=      5-min Rain = 0
KUM1 240846Z 17017KT 18/12 A2984 RMK A01 T01820122  RH  068%=      5-min Rain = 0
KUM1 240847Z 17017KT 18/12 A2984 RMK A01 T01810121  RH  068%=      5-min Rain = 0
KUM1 240848Z 17017KT 18/12 A2984 RMK A01 T01800122  RH  069%=      5-min Rain = 0
KUM1 240849Z 17017KT 18/12 A2984 RMK A01 T01800122  RH  069%=      5-min Rain = 0
KUM1 240850Z 18017KT 18/12 A2984 RMK A01 T01800122  RH  069%=      5-min Rain = 0
KUM1 240851Z 18016KT 18/12 A2984 RMK A01 T01790122  RH  069%=      5-min Rain = 0
KUM1 240852Z 18016KT 18/12 A2984 RMK A01 T01790122  RH  069%=      5-min Rain = 0
KUM1 240853Z 18015G20KT 18/12 A2984 RMK A01 T01780121  RH  069%=      5-min Rain = 0
KUM1 240854Z 18017KT 18/12 A2984 RMK A01 T01770121  RH  070%=      5-min Rain = 0
KUM1 240855Z 18015KT 18/12 A2984 RMK A01 T01770121  RH  070%=      5-min Rain = 0
KUM1 240856Z 18017KT 18/12 A2984 RMK A01 T01770121  RH  070%=      5-min Rain = 0
KUM1 240857Z 18016KT 18/12 A2984 RMK A01 T01770121  RH  070%=      5-min Rain = 0
KUM1 240858Z 18016KT 18/12 A2984 RMK A01 T01760121  RH  070%=      5-min Rain = 0
KUM1 240859Z 18016KT 18/12 A2984 RMK A01 T01760121  RH  070%=      5-min Rain = 0
KUM1 240900Z 18016KT 18/12 A2984 RMK A01 T01750121  RH  070%=      5-min Rain = 0
KUM1 240901Z 18016KT 18/12 A2984 RMK A01 T01750121  RH  071%=      5-min Rain = 0
KUM1 240902Z 18016KT 17/12 A2984 RMK A01 T01740121  RH  071%=      5-min Rain = 0
KUM1 240903Z 18016KT 17/12 A2984 RMK A01 T01740121  RH  071%=      5-min Rain = 0
KUM1 240904Z 18015KT 17/12 A2984 RMK A01 T01730121  RH  071%=      5-min Rain = 0
KUM1 240905Z 17016KT 17/12 A2984 RMK A01 T01730121  RH  071%=      5-min Rain = 0
KUM1 240906Z 18017KT 17/12 A2984 RMK A01 T01730121  RH  072%=      5-min Rain = 0
KUM1 240907Z 18017KT 17/12 A2984 RMK A01 T01730121  RH  072%=      5-min Rain = 0
KUM1 240908Z 18016KT 17/12 A2984 RMK A01 T01730121  RH  072%=      5-min Rain = 0
KUM1 240909Z 18014KT 17/12 A2984 RMK A01 T01730121  RH  072%=      5-min Rain = 0
KUM1 240910Z 18014KT 17/12 A2984 RMK A01 T01720121  RH  072%=      5-min Rain = 0
KUM1 240911Z 18017KT 17/12 A2984 RMK A01 T01710121  RH  072%=      5-min Rain = 0
KUM1 240912Z 18014KT 17/12 A2984 RMK A01 T01710121  RH  072%=      5-min Rain = 0
KUM1 240913Z 18015KT 17/12 A2984 RMK A01 T01710121  RH  072%=      5-min Rain = 0
KUM1 240914Z 18016KT 17/12 A2984 RMK A01 T01710121  RH  072%=      5-min Rain = 0
KUM1 240915Z 18016KT 17/12 A2984 RMK A01 T01710121  RH  072%=      5-min Rain = 0
KUM1 240916Z 18016G21KT 17/12 A2984 RMK A01 T01710121  RH  073%=      5-min Rain = 0
KUM1 240917Z 18016KT 17/12 A2984 RMK A01 T01700121  RH  073%=      5-min Rain = 0
KUM1 240918Z 18016KT 17/12 A2984 RMK A01 T01710121  RH  072%=      5-min Rain = 0
KUM1 240919Z 18016KT 17/12 A2984 RMK A01 T01710121  RH  072%=      5-min Rain = 0
KUM1 240920Z 18017KT 17/12 A2984 RMK A01 T01700121  RH  073%=      5-min Rain = 0
KUM1 240921Z 18017KT 17/12 A2984 RMK A01 T01700120  RH  073%=      5-min Rain = 0
KUM1 240922Z 18016KT 17/12 A2984 RMK A01 T01700120  RH  072%=      5-min Rain = 0
KUM1 240923Z 18017KT 17/12 A2984 RMK A01 T01700121  RH  073%=      5-min Rain = 0
KUM1 240924Z 18016KT 17/12 A2984 RMK A01 T01700120  RH  073%=      5-min Rain = 0
KUM1 240925Z 18015KT 17/12 A2984 RMK A01 T01700120  RH  073%=      5-min Rain = 0
KUM1 240926Z 18014KT 17/12 A2984 RMK A01 T01690120  RH  073%=      5-min Rain = 0
KUM1 240927Z 18015KT 17/12 A2984 RMK A01 T01680119  RH  073%=      5-min Rain = 0
KUM1 240928Z 18015KT 17/12 A2984 RMK A01 T01680120  RH  073%=      5-min Rain = 0
KUM1 240929Z 18015KT 17/12 A2984 RMK A01 T01680119  RH  073%=      5-min Rain = 0
KUM1 240930Z 17015KT 17/12 A2984 RMK A01 T01680119  RH  073%=      5-min Rain = 0
KUM1 240931Z 17013KT 17/12 A2984 RMK A01 T01680119  RH  073%=      5-min Rain = 0
KUM1 240932Z 17014KT 17/12 A2985 RMK A01 T01680119  RH  073%=      5-min Rain = 0
KUM1 240933Z 17015KT 17/12 A2985 RMK A01 T01670119  RH  073%=      5-min Rain = 0
KUM1 240934Z 17015KT 17/12 A2985 RMK A01 T01670119  RH  073%=      5-min Rain = 0
KUM1 240935Z 17016KT 17/12 A2985 RMK A01 T01670118  RH  073%=      5-min Rain = 0
KUM1 240936Z 17013KT 17/12 A2985 RMK A01 T01680118  RH  072%=      5-min Rain = 0
KUM1 240937Z 17013KT 17/12 A2985 RMK A01 T01680118  RH  072%=      5-min Rain = 0
KUM1 240938Z 17016KT 17/12 A2985 RMK A01 T01670118  RH  073%=      5-min Rain = 0
KUM1 240939Z 17014KT 17/12 A2985 RMK A01 T01670117  RH  072%=      5-min Rain = 0
KUM1 240940Z 17013KT 17/12 A2985 RMK A01 T01670117  RH  072%=      5-min Rain = 0
KUM1 240941Z 16013KT 17/12 A2985 RMK A01 T01670117  RH  072%=      5-min Rain = 0
KUM1 240942Z 16013KT 17/12 A2985 RMK A01 T01670117  RH  073%=      5-min Rain = 0
KUM1 240943Z 17014KT 17/12 A2985 RMK A01 T01660117  RH  073%=      5-min Rain = 0
KUM1 240944Z 17012KT 17/12 A2985 RMK A01 T01660118  RH  073%=      5-min Rain = 0
KUM1 240945Z 17014KT 17/12 A2986 RMK A01 T01650117  RH  073%=      5-min Rain = 0
KUM1 240946Z 17011KT 17/12 A2986 RMK A01 T01650118  RH  073%=      5-min Rain = 0
KUM1 240947Z 16013KT 16/12 A2986 RMK A01 T01640117  RH  074%=      5-min Rain = 0
KUM1 240948Z 16012KT 16/12 A2986 RMK A01 T01640117  RH  074%=      5-min Rain = 0
KUM1 240949Z 16012KT 16/12 A2986 RMK A01 T01630117  RH  074%=      5-min Rain = 0
KUM1 240950Z 16014KT 16/12 A2986 RMK A01 T01630117  RH  075%=      5-min Rain = 0
KUM1 240951Z 16012KT 16/12 A2986 RMK A01 T01630117  RH  074%=      5-min Rain = 0
KUM1 240952Z 16012KT 16/12 A2986 RMK A01 T01630117  RH  074%=      5-min Rain = 0
KUM1 240953Z 16013KT 16/12 A2986 RMK A01 T01620117  RH  074%=      5-min Rain = 0
KUM1 240954Z 16014KT 16/12 A2986 RMK A01 T01620116  RH  074%=      5-min Rain = 0
KUM1 240955Z 16011KT 16/12 A2986 RMK A01 T01620116  RH  074%=      5-min Rain = 0
KUM1 240956Z 16012KT 16/12 A2986 RMK A01 T01620116  RH  074%=      5-min Rain = 0
KUM1 240957Z 16013KT 16/12 A2986 RMK A01 T01610115  RH  074%=      5-min Rain = 0
KUM1 240958Z 16015KT 16/12 A2986 RMK A01 T01610116  RH  075%=      5-min Rain = 0
KUM1 240959Z 16013KT 16/12 A2986 RMK A01 T01610115  RH  074%=      5-min Rain = 0
KUM1 241000Z 16012KT 16/12 A2986 RMK A01 T01610115  RH  074%=      5-min Rain = 0
KUM1 241001Z 15013KT 16/12 A2986 RMK A01 T01600115  RH  075%=      5-min Rain = 0
KUM1 241002Z 15012KT 16/12 A2986 RMK A01 T01590115  RH  075%=      5-min Rain = 0
KUM1 241003Z 15012KT 16/12 A2986 RMK A01 T01600115  RH  075%=      5-min Rain = 0
KUM1 241004Z 14012KT 16/12 A2986 RMK A01 T01590115  RH  075%=      5-min Rain = 0
KUM1 241005Z 14011KT 16/12 A2986 RMK A01 T01580116  RH  076%=      5-min Rain = 0
KUM1 241006Z 14010KT 16/12 A2986 RMK A01 T01560116  RH  077%=      5-min Rain = 0
KUM1 241007Z 14011KT 15/12 A2986 RMK A01 T01540116  RH  078%=      5-min Rain = 0
KUM1 241008Z 14011KT 15/12 A2986 RMK A01 T01520116  RH  079%=      5-min Rain = 0
KUM1 241009Z 15010KT 15/12 A2986 RMK A01 T01520116  RH  079%=      5-min Rain = 0
KUM1 241010Z 15011KT 15/12 A2986 RMK A01 T01510116  RH  080%=      5-min Rain = 0
KUM1 241011Z 15011KT 15/12 A2986 RMK A01 T01510116  RH  080%=      5-min Rain = 0
KUM1 241012Z 15011KT 15/12 A2986 RMK A01 T01500116  RH  080%=      5-min Rain = 0
KUM1 241013Z 16010KT 15/12 A2986 RMK A01 T01500117  RH  080%=      5-min Rain = 0
KUM1 241014Z 16010KT 15/12 A2986 RMK A01 T01500116  RH  080%=      5-min Rain = 0
KUM1 241015Z 16011KT 15/12 A2986 RMK A01 T01490116  RH  081%=      5-min Rain = 0
KUM1 241016Z 16010KT 15/12 A2986 RMK A01 T01490116  RH  081%=      5-min Rain = 0
KUM1 241017Z 17010KT 15/12 A2986 RMK A01 T01490117  RH  081%=      5-min Rain = 0
KUM1 241018Z 16014KT 15/12 A2986 RMK A01 T01490116  RH  081%=      5-min Rain = 0
KUM1 241019Z 17011KT 15/12 A2986 RMK A01 T01500116  RH  080%=      5-min Rain = 0
KUM1 241020Z 17010KT 15/12 A2986 RMK A01 T01500116  RH  080%=      5-min Rain = 0
KUM1 241021Z 17011KT 15/12 A2986 RMK A01 T01490115  RH  080%=      5-min Rain = 0
KUM1 241022Z 17011KT 15/12 A2986 RMK A01 T01480116  RH  081%=      5-min Rain = 0
KUM1 241023Z 17010KT 15/12 A2986 RMK A01 T01480116  RH  081%=      5-min Rain = 0
KUM1 241024Z 17011KT 15/12 A2986 RMK A01 T01490116  RH  081%=      5-min Rain = 0
KUM1 241025Z 17011KT 15/12 A2986 RMK A01 T01480116  RH  081%=      5-min Rain = 0
KUM1 241026Z 18011KT 15/12 A2986 RMK A01 T01480116  RH  081%=      5-min Rain = 0
KUM1 241027Z 17010KT 15/12 A2986 RMK A01 T01480115  RH  081%=      5-min Rain = 0
KUM1 241028Z 17010KT 15/12 A2986 RMK A01 T01480115  RH  081%=      5-min Rain = 0
KUM1 241029Z 17012KT 15/12 A2986 RMK A01 T01480115  RH  081%=      5-min Rain = 0
KUM1 241030Z 17012KT 15/12 A2986 RMK A01 T01480115  RH  081%=      5-min Rain = 0
KUM1 241031Z 17011KT 15/12 A2986 RMK A01 T01480115  RH  081%=      5-min Rain = 0
KUM1 241032Z 17011KT 15/12 A2986 RMK A01 T01480115  RH  080%=      5-min Rain = 0
KUM1 241033Z 17010KT 15/12 A2986 RMK A01 T01480115  RH  080%=      5-min Rain = 0
KUM1 241034Z 17010KT 15/11 A2986 RMK A01 T01470114  RH  081%=      5-min Rain = 0
KUM1 241035Z 17010KT 15/11 A2986 RMK A01 T01460114  RH  081%=      5-min Rain = 0
KUM1 241036Z 17009KT 15/11 A2986 RMK A01 T01460114  RH  081%=      5-min Rain = 0
KUM1 241037Z 17011KT 15/11 A2986 RMK A01 T01450114  RH  081%=      5-min Rain = 0
KUM1 241038Z 17011KT 15/11 A2986 RMK A01 T01460114  RH  081%=      5-min Rain = 0
KUM1 241039Z 17011KT 15/11 A2986 RMK A01 T01470114  RH  081%=      5-min Rain = 0
KUM1 241040Z 17011KT 15/11 A2986 RMK A01 T01470114  RH  080%=      5-min Rain = 0
KUM1 241041Z 17011KT 15/11 A2986 RMK A01 T01470114  RH  080%=      5-min Rain = 0
KUM1 241042Z 17010KT 15/11 A2986 RMK A01 T01470114  RH  081%=      5-min Rain = 0
KUM1 241043Z 17010KT 15/11 A2986 RMK A01 T01460114  RH  081%=      5-min Rain = 0
KUM1 241044Z 17010KT 15/11 A2986 RMK A01 T01460113  RH  081%=      5-min Rain = 0
KUM1 241045Z 17009KT 15/11 A2986 RMK A01 T01450113  RH  081%=      5-min Rain = 0
KUM1 241046Z 18011KT 15/11 A2986 RMK A01 T01450113  RH  081%=      5-min Rain = 0
KUM1 241047Z 17010KT 15/11 A2986 RMK A01 T01450113  RH  081%=      5-min Rain = 0
KUM1 241048Z 17011KT 15/11 A2986 RMK A01 T01450113  RH  081%=      5-min Rain = 0
KUM1 241049Z 17012KT 15/11 A2986 RMK A01 T01450113  RH  081%=      5-min Rain = 0
KUM1 241050Z 18011KT 15/11 A2986 RMK A01 T01460113  RH  080%=      5-min Rain = 0
KUM1 241051Z 17011KT 15/11 A2986 RMK A01 T01470112  RH  080%=      5-min Rain = 0
KUM1 241052Z 17011KT 15/11 A2986 RMK A01 T01470112  RH  080%=      5-min Rain = 0
KUM1 241053Z 17012KT 15/11 A2986 RMK A01 T01470112  RH  079%=      5-min Rain = 0
KUM1 241054Z 18011KT 15/11 A2986 RMK A01 T01480112  RH  079%=      5-min Rain = 0
KUM1 241055Z 17010KT 15/11 A2986 RMK A01 T01480112  RH  079%=      5-min Rain = 0
KUM1 241056Z 18011KT 15/11 A2986 RMK A01 T01470112  RH  079%=      5-min Rain = 0
KUM1 241057Z 18012KT 15/11 A2986 RMK A01 T01470112  RH  079%=      5-min Rain = 0
KUM1 241058Z 18012KT 15/11 A2986 RMK A01 T01470112  RH  079%=      5-min Rain = 0
KUM1 241059Z 18013KT 15/11 A2986 RMK A01 T01470112  RH  079%=      5-min Rain = 0
KUM1 241100Z 17013KT 15/11 A2986 RMK A01 T01470112  RH  079%=      5-min Rain = 0
KUM1 241101Z 17013KT 15/11 A2986 RMK A01 T01470112  RH  079%=      5-min Rain = 0
KUM1 241102Z 18014KT 15/11 A2986 RMK A01 T01480112  RH  079%=      5-min Rain = 0
KUM1 241103Z 17013KT 15/11 A2986 RMK A01 T01480112  RH  079%=      5-min Rain = 0
KUM1 241104Z 17013KT 15/11 A2986 RMK A01 T01480112  RH  079%=      5-min Rain = 0
KUM1 241105Z 18013KT 15/11 A2985 RMK A01 T01480112  RH  079%=      5-min Rain = 0
KUM1 241106Z 17013KT 15/11 A2985 RMK A01 T01480112  RH  079%=      5-min Rain = 0
KUM1 241107Z 17014KT 15/11 A2985 RMK A01 T01480112  RH  079%=      5-min Rain = 0
KUM1 241108Z 17013KT 15/11 A2985 RMK A01 T01480112  RH  079%=      5-min Rain = 0
KUM1 241109Z 18012KT 15/11 A2985 RMK A01 T01470112  RH  079%=      5-min Rain = 0
KUM1 241110Z 18014KT 15/11 A2985 RMK A01 T01470111  RH  079%=      5-min Rain = 0
KUM1 241111Z 18013KT 15/11 A2985 RMK A01 T01460111  RH  079%=      5-min Rain = 0
KUM1 241112Z 18015KT 15/11 A2985 RMK A01 T01460111  RH  079%=      5-min Rain = 0
KUM1 241113Z 18014KT 15/11 A2985 RMK A01 T01460111  RH  079%=      5-min Rain = 0
KUM1 241114Z 18013KT 15/11 A2985 RMK A01 T01470111  RH  079%=      5-min Rain = 0
KUM1 241115Z 18013KT 15/11 A2985 RMK A01 T01470110  RH  079%=      5-min Rain = 0
KUM1 241116Z 18015KT 15/11 A2985 RMK A01 T01470111  RH  079%=      5-min Rain = 0
KUM1 241117Z 18013KT 15/11 A2985 RMK A01 T01470111  RH  079%=      5-min Rain = 0
KUM1 241118Z 18013KT 15/11 A2985 RMK A01 T01470111  RH  079%=      5-min Rain = 0
KUM1 241119Z 18012KT 15/11 A2985 RMK A01 T01470111  RH  079%=      5-min Rain = 0
KUM1 241120Z 18014KT 15/11 A2985 RMK A01 T01460110  RH  079%=      5-min Rain = 0
KUM1 241121Z 18013KT 15/11 A2985 RMK A01 T01460110  RH  079%=      5-min Rain = 0
KUM1 241122Z 18014KT 15/11 A2985 RMK A01 T01460110  RH  079%=      5-min Rain = 0
KUM1 241123Z 18013KT 15/11 A2985 RMK A01 T01460110  RH  079%=      5-min Rain = 0
KUM1 241124Z 18014KT 15/11 A2985 RMK A01 T01460110  RH  079%=      5-min Rain = 0
KUM1 241125Z 18013KT 15/11 A2985 RMK A01 T01460110  RH  079%=      5-min Rain = 0
KUM1 241126Z 18012KT 15/11 A2985 RMK A01 T01450110  RH  079%=      5-min Rain = 0
KUM1 241127Z 19013KT 15/11 A2985 RMK A01 T01450110  RH  079%=      5-min Rain = 0
KUM1 241128Z 19013G18KT 14/11 A2985 RMK A01 T01440110  RH  080%=      5-min Rain = 0
KUM1 241129Z 18013KT 14/11 A2985 RMK A01 T01440110  RH  080%=      5-min Rain = 0
KUM1 241130Z 18013KT 14/11 A2985 RMK A01 T01440109  RH  080%=      5-min Rain = 0
KUM1 241131Z 19014KT 14/11 A2985 RMK A01 T01440109  RH  080%=      5-min Rain = 0
KUM1 241132Z 18013KT 14/11 A2985 RMK A01 T01440109  RH  080%=      5-min Rain = 0
KUM1 241133Z 18013KT 14/11 A2985 RMK A01 T01440109  RH  080%=      5-min Rain = 0
KUM1 241134Z 19013KT 14/11 A2985 RMK A01 T01440109  RH  080%=      5-min Rain = 0
KUM1 241135Z 18013KT 14/11 A2985 RMK A01 T01440109  RH  079%=      5-min Rain = 0
KUM1 241136Z 19013KT 14/11 A2985 RMK A01 T01440109  RH  079%=      5-min Rain = 0
KUM1 241137Z 19013KT 14/11 A2985 RMK A01 T01440109  RH  079%=      5-min Rain = 0
KUM1 241138Z 18013KT 14/11 A2985 RMK A01 T01440109  RH  079%=      5-min Rain = 0
KUM1 241139Z 19012KT 14/11 A2985 RMK A01 T01440109  RH  079%=      5-min Rain = 0
KUM1 241140Z 19012KT 14/11 A2985 RMK A01 T01440108  RH  079%=      5-min Rain = 0
KUM1 241141Z 18013KT 14/11 A2985 RMK A01 T01440108  RH  079%=      5-min Rain = 0
KUM1 241142Z 18013KT 14/11 A2985 RMK A01 T01440108  RH  079%=      5-min Rain = 0
KUM1 241143Z 18013KT 14/11 A2985 RMK A01 T01440108  RH  079%=      5-min Rain = 0
KUM1 241144Z 18012KT 14/11 A2985 RMK A01 T01430108  RH  079%=      5-min Rain = 0
KUM1 241145Z 18013KT 14/11 A2985 RMK A01 T01440108  RH  079%=      5-min Rain = 0
KUM1 241146Z 18013KT 14/11 A2985 RMK A01 T01430108  RH  079%=      5-min Rain = 0
KUM1 241147Z 18013KT 14/11 A2985 RMK A01 T01440108  RH  079%=      5-min Rain = 0
KUM1 241148Z 18014KT 14/11 A2985 RMK A01 T01440108  RH  079%=      5-min Rain = 0
KUM1 241149Z 18012KT 14/11 A2985 RMK A01 T01440108  RH  079%=      5-min Rain = 0
KUM1 241150Z 18013KT 14/11 A2985 RMK A01 T01440108  RH  079%=      5-min Rain = 0
KUM1 241151Z 18013KT 14/11 A2985 RMK A01 T01440108  RH  079%=      5-min Rain = 0
KUM1 241152Z 18013KT 14/11 A2985 RMK A01 T01440108  RH  079%=      5-min Rain = 0
KUM1 241153Z 18014KT 14/11 A2985 RMK A01 T01440108  RH  079%=      5-min Rain = 0
KUM1 241154Z 18013KT 15/11 A2985 RMK A01 T01450108  RH  079%=      5-min Rain = 0
KUM1 241155Z 18013KT 15/11 A2985 RMK A01 T01450108  RH  078%=      5-min Rain = 0
KUM1 241156Z 18015KT 15/11 A2985 RMK A01 T01450108  RH  079%=      5-min Rain = 0
KUM1 241157Z 18014KT 15/11 A2985 RMK A01 T01450108  RH  078%=      5-min Rain = 0
KUM1 241158Z 18014KT 15/11 A2985 RMK A01 T01450108  RH  078%=      5-min Rain = 0
KUM1 241159Z 19013KT 15/11 A2985 RMK A01 T01450108  RH  078%=      5-min Rain = 0
KUM1 241200Z 18015KT 15/11 A2985 RMK A01 T01450108  RH  078%=      5-min Rain = 0
KUM1 241201Z 19014KT 15/11 A2985 RMK A01 T01450108  RH  078%=      5-min Rain = 0
KUM1 241202Z 19013KT 15/11 A2985 RMK A01 T01450108  RH  078%=      5-min Rain = 0
KUM1 241203Z 19014KT 15/11 A2985 RMK A01 T01450108  RH  078%=      5-min Rain = 0
KUM1 241204Z 18014KT 15/11 A2985 RMK A01 T01450108  RH  078%=      5-min Rain = 0
KUM1 241205Z 19015KT 15/11 A2985 RMK A01 T01460109  RH  078%=      5-min Rain = 0
KUM1 241206Z 19016KT 15/11 A2985 RMK A01 T01460108  RH  078%=      5-min Rain = 0
KUM1 241207Z 19014KT 15/11 A2985 RMK A01 T01460109  RH  078%=      5-min Rain = 0
KUM1 241208Z 19014KT 15/11 A2985 RMK A01 T01460108  RH  078%=      5-min Rain = 0
KUM1 241209Z 19014KT 15/11 A2985 RMK A01 T01460108  RH  078%=      5-min Rain = 0
KUM1 241210Z 18014KT 15/11 A2985 RMK A01 T01460109  RH  078%=      5-min Rain = 0
KUM1 241211Z 19013KT 15/11 A2985 RMK A01 T01460109  RH  078%=      5-min Rain = 0
KUM1 241212Z 19013KT 15/11 A2985 RMK A01 T01460108  RH  078%=      5-min Rain = 0
KUM1 241213Z 19017KT 15/11 A2985 RMK A01 T01470109  RH  078%=      5-min Rain = 0
KUM1 241214Z 19017KT 15/11 A2985 RMK A01 T01470109  RH  078%=      5-min Rain = 0
KUM1 241215Z 19016KT 15/11 A2985 RMK A01 T01480109  RH  077%=      5-min Rain = 0
KUM1 241216Z 19015KT 15/11 A2985 RMK A01 T01490109  RH  077%=      5-min Rain = 0
KUM1 241217Z 19015KT 15/11 A2985 RMK A01 T01490109  RH  077%=      5-min Rain = 0
KUM1 241218Z 19016KT 15/11 A2985 RMK A01 T01490109  RH  077%=      5-min Rain = 0
KUM1 241219Z 19016KT 15/11 A2985 RMK A01 T01490109  RH  077%=      5-min Rain = 0
KUM1 241220Z 19017KT 15/11 A2985 RMK A01 T01500109  RH  077%=      5-min Rain = 0
KUM1 241221Z 20017KT 15/11 A2985 RMK A01 T01500109  RH  076%=      5-min Rain = 0
KUM1 241222Z 19017KT 15/11 A2985 RMK A01 T01500109  RH  076%=      5-min Rain = 0
KUM1 241223Z 19015KT 15/11 A2985 RMK A01 T01510109  RH  076%=      5-min Rain = 0
KUM1 241224Z 20015KT 15/11 A2985 RMK A01 T01510109  RH  076%=      5-min Rain = 0
KUM1 241225Z 20016KT 15/11 A2985 RMK A01 T01510110  RH  076%=      5-min Rain = 0
KUM1 241226Z 20016KT 15/11 A2985 RMK A01 T01510109  RH  076%=      5-min Rain = 0
KUM1 241227Z 20015KT 15/11 A2985 RMK A01 T01520110  RH  076%=      5-min Rain = 0
KUM1 241228Z 20013KT 15/11 A2985 RMK A01 T01520110  RH  076%=      5-min Rain = 0
KUM1 241229Z 20017KT 15/11 A2985 RMK A01 T01520110  RH  076%=      5-min Rain = 0
KUM1 241230Z 20017KT 15/11 A2985 RMK A01 T01530110  RH  076%=      5-min Rain = 0
KUM1 241231Z 20015KT 15/11 A2985 RMK A01 T01530110  RH  075%=      5-min Rain = 0
KUM1 241232Z 19017KT 15/11 A2985 RMK A01 T01540110  RH  075%=      5-min Rain = 0
KUM1 241233Z 20016G21KT 15/11 A2985 RMK A01 T01540110  RH  075%=      5-min Rain = 0
KUM1 241234Z 20017G23KT 15/11 A2985 RMK A01 T01540110  RH  075%=      5-min Rain = 0
KUM1 241235Z 20017KT 16/11 A2985 RMK A01 T01550111  RH  075%=      5-min Rain = 0
KUM1 241236Z 19017KT 16/11 A2985 RMK A01 T01550110  RH  075%=      5-min Rain = 0
KUM1 241237Z 19017KT 16/11 A2985 RMK A01 T01560111  RH  074%=      5-min Rain = 0
KUM1 241238Z 20018KT 16/11 A2985 RMK A01 T01570111  RH  074%=      5-min Rain = 0
KUM1 241239Z 20017KT 16/11 A2985 RMK A01 T01570111  RH  074%=      5-min Rain = 0
KUM1 241240Z 20017KT 16/11 A2985 RMK A01 T01580111  RH  074%=      5-min Rain = 0
KUM1 241241Z 20019KT 16/11 A2985 RMK A01 T01580111  RH  073%=      5-min Rain = 0
KUM1 241242Z 20018KT 16/11 A2985 RMK A01 T01590111  RH  073%=      5-min Rain = 0
KUM1 241243Z 20017KT 16/11 A2985 RMK A01 T01600112  RH  073%=      5-min Rain = 0
KUM1 241244Z 20020KT 16/11 A2985 RMK A01 T01600112  RH  073%=      5-min Rain = 0
KUM1 241245Z 20017KT 16/11 A2985 RMK A01 T01610112  RH  072%=      5-min Rain = 0
KUM1 241246Z 20018G23KT 16/11 A2985 RMK A01 T01620112  RH  072%=      5-min Rain = 0
KUM1 241247Z 20016KT 16/11 A2985 RMK A01 T01620112  RH  072%=      5-min Rain = 0
KUM1 241248Z 20016KT 16/11 A2985 RMK A01 T01630112  RH  072%=      5-min Rain = 0
KUM1 241249Z 20018KT 16/11 A2985 RMK A01 T01640113  RH  072%=      5-min Rain = 0
KUM1 241250Z 20017KT 16/11 A2985 RMK A01 T01630112  RH  072%=      5-min Rain = 0
KUM1 241251Z 20017KT 16/11 A2985 RMK A01 T01640112  RH  072%=      5-min Rain = 0
KUM1 241252Z 20017KT 16/11 A2985 RMK A01 T01640113  RH  072%=      5-min Rain = 0
KUM1 241253Z 20016KT 17/11 A2985 RMK A01 T01650113  RH  072%=      5-min Rain = 0
KUM1 241254Z 19013KT 17/11 A2985 RMK A01 T01650114  RH  071%=      5-min Rain = 0
KUM1 241255Z 19019KT 17/11 A2985 RMK A01 T01660114  RH  071%=      5-min Rain = 0
KUM1 241256Z 20019KT 17/11 A2985 RMK A01 T01660114  RH  071%=      5-min Rain = 0
KUM1 241257Z 20018KT 17/11 A2985 RMK A01 T01670114  RH  071%=      5-min Rain = 0
KUM1 241258Z 20018KT 17/11 A2985 RMK A01 T01660114  RH  071%=      5-min Rain = 0
KUM1 241259Z 20018KT 17/11 A2985 RMK A01 T01670114  RH  071%=      5-min Rain = 0
KUM1 241300Z 19018KT 17/12 A2985 RMK A01 T01680115  RH  071%=      5-min Rain = 0
KUM1 241301Z 20019KT 17/12 A2985 RMK A01 T01680115  RH  071%=      5-min Rain = 0
KUM1 241302Z 20019KT 17/12 A2985 RMK A01 T01690115  RH  070%=      5-min Rain = 0
KUM1 241303Z 20019KT 17/12 A2985 RMK A01 T01690115  RH  070%=      5-min Rain = 0
KUM1 241304Z 20019KT 17/12 A2985 RMK A01 T01690115  RH  070%=      5-min Rain = 0
KUM1 241305Z 19018KT 17/12 A2985 RMK A01 T01700116  RH  070%=      5-min Rain = 0
KUM1 241306Z 20018G23KT 17/12 A2984 RMK A01 T01710116  RH  070%=      5-min Rain = 0
KUM1 241307Z 20020KT 17/12 A2984 RMK A01 T01720116  RH  070%=      5-min Rain = 0
KUM1 241308Z 20019KT 17/12 A2984 RMK A01 T01720116  RH  070%=      5-min Rain = 0
KUM1 241309Z 20017KT 17/12 A2984 RMK A01 T01730117  RH  070%=      5-min Rain = 0
KUM1 241310Z 20016KT 17/12 A2984 RMK A01 T01740118  RH  069%=      5-min Rain = 0
KUM1 241311Z 20017KT 18/12 A2984 RMK A01 T01760118  RH  069%=      5-min Rain = 0
KUM1 241312Z 20019KT 18/12 A2984 RMK A01 T01760118  RH  069%=      5-min Rain = 0
KUM1 241313Z 20018KT 18/12 A2984 RMK A01 T01770118  RH  068%=      5-min Rain = 0
KUM1 241314Z 20017KT 18/12 A2984 RMK A01 T01780119  RH  068%=      5-min Rain = 0
KUM1 241315Z 20017KT 18/12 A2984 RMK A01 T01790119  RH  068%=      5-min Rain = 0
KUM1 241316Z 20016G21KT 18/12 A2984 RMK A01 T01800119  RH  068%=      5-min Rain = 0
KUM1 241317Z 20021KT 18/12 A2984 RMK A01 T01800119  RH  067%=      5-min Rain = 0
KUM1 241318Z 20020KT 18/12 A2984 RMK A01 T01810119  RH  067%=      5-min Rain = 0
KUM1 241319Z 20020KT 18/12 A2984 RMK A01 T01810119  RH  067%=      5-min Rain = 0
KUM1 241320Z 21019G25KT 18/12 A2984 RMK A01 T01820120  RH  067%=      5-min Rain = 0
KUM1 241321Z 21020KT 18/12 A2984 RMK A01 T01840121  RH  067%=      5-min Rain = 0
KUM1 241322Z 21021G27KT 19/12 A2984 RMK A01 T01850121  RH  066%=      5-min Rain = 0
KUM1 241323Z 21021G26KT 19/12 A2984 RMK A01 T01860121  RH  066%=      5-min Rain = 0
KUM1 241324Z 21021G26KT 19/12 A2984 RMK A01 T01870122  RH  066%=      5-min Rain = 0
KUM1 241325Z 21023G28KT 19/12 A2984 RMK A01 T01880122  RH  066%=      5-min Rain = 0
KUM1 241326Z 21022KT 19/12 A2984 RMK A01 T01890122  RH  065%=      5-min Rain = 0
KUM1 241327Z 21021G26KT 19/12 A2984 RMK A01 T01900123  RH  065%=      5-min Rain = 0
KUM1 241328Z 21023KT 19/12 A2984 RMK A01 T01900123  RH  065%=      5-min Rain = 0
KUM1 241329Z 21023G28KT 19/12 A2984 RMK A01 T01910123  RH  065%=      5-min Rain = 0
KUM1 241330Z 21022G27KT 19/12 A2984 RMK A01 T01910123  RH  065%=      5-min Rain = 0
KUM1 241331Z 21024G30KT 19/12 A2984 RMK A01 T01920124  RH  065%=      5-min Rain = 0
KUM1 241332Z 21024KT 19/12 A2984 RMK A01 T01930124  RH  064%=      5-min Rain = 0
KUM1 241333Z 21022KT 19/12 A2984 RMK A01 T01930124  RH  064%=      5-min Rain = 0
KUM1 241334Z 21021KT 19/12 A2984 RMK A01 T01940124  RH  064%=      5-min Rain = 0
KUM1 241335Z 21021KT 20/13 A2984 RMK A01 T01950125  RH  064%=      5-min Rain = 0
KUM1 241336Z 21024KT 20/13 A2984 RMK A01 T01960125  RH  064%=      5-min Rain = 0
KUM1 241337Z 21021KT 20/13 A2984 RMK A01 T01960125  RH  064%=      5-min Rain = 0
KUM1 241338Z 21021KT 20/13 A2984 RMK A01 T01960126  RH  064%=      5-min Rain = 0
KUM1 241339Z 21022KT 20/13 A2984 RMK A01 T01970126  RH  064%=      5-min Rain = 0
KUM1 241340Z 22026G31KT 20/13 A2983 RMK A01 T01970126  RH  063%=      5-min Rain = 0
KUM1 241341Z 21025KT 20/13 A2984 RMK A01 T01980126  RH  063%=      5-min Rain = 0
KUM1 241342Z 21023G28KT 20/13 A2983 RMK A01 T01980127  RH  063%=      5-min Rain = 0
KUM1 241343Z 21025KT 20/13 A2983 RMK A01 T01990127  RH  063%=      5-min Rain = 0
KUM1 241344Z 21021G26KT 20/13 A2984 RMK A01 T01990127  RH  063%=      5-min Rain = 0
KUM1 241345Z 21021KT 20/13 A2983 RMK A01 T02010128  RH  063%=      5-min Rain = 0
KUM1 241346Z 21025KT 20/13 A2983 RMK A01 T02030129  RH  062%=      5-min Rain = 0
KUM1 241347Z 21022KT 20/13 A2983 RMK A01 T02030129  RH  062%=      5-min Rain = 0
KUM1 241348Z 21024KT 20/13 A2983 RMK A01 T02040129  RH  062%=      5-min Rain = 0
KUM1 241349Z 21024KT 21/13 A2983 RMK A01 T02050128  RH  062%=      5-min Rain = 0
KUM1 241350Z 21023KT 21/13 A2984 RMK A01 T02050129  RH  062%=      5-min Rain = 0
KUM1 241351Z 21024KT 21/13 A2984 RMK A01 T02050129  RH  062%=      5-min Rain = 0
KUM1 241352Z 22025KT 21/13 A2984 RMK A01 T02070130  RH  061%=      5-min Rain = 0
KUM1 241353Z 22024KT 21/13 A2984 RMK A01 T02060129  RH  061%=      5-min Rain = 0
KUM1 241354Z 21023KT 21/13 A2984 RMK A01 T02070129  RH  061%=      5-min Rain = 0
KUM1 241355Z 21024KT 21/13 A2984 RMK A01 T02080130  RH  061%=      5-min Rain = 0
KUM1 241356Z 21023KT 21/13 A2984 RMK A01 T02080129  RH  061%=      5-min Rain = 0
KUM1 241357Z 21022KT 21/13 A2984 RMK A01 T02080130  RH  061%=      5-min Rain = 0
KUM1 241358Z 20021G28KT 21/13 A2984 RMK A01 T02080130  RH  061%=      5-min Rain = 0
KUM1 241359Z 21022KT 21/13 A2984 RMK A01 T02090130  RH  060%=      5-min Rain = 0
KUM1 241400Z 21023KT 21/13 A2984 RMK A01 T02100130  RH  060%=      5-min Rain = 0
KUM1 241401Z 21021KT 21/13 A2984 RMK A01 T02110131  RH  060%=      5-min Rain = 0
KUM1 241402Z 22022KT 21/13 A2984 RMK A01 T02120131  RH  060%=      5-min Rain = 0
KUM1 241403Z 21021KT 21/13 A2984 RMK A01 T02130131  RH  060%=      5-min Rain = 0
KUM1 241404Z 21021KT 21/13 A2984 RMK A01 T02130131  RH  059%=      5-min Rain = 0
KUM1 241405Z 21020G25KT 21/13 A2984 RMK A01 T02140131  RH  059%=      5-min Rain = 0
KUM1 241406Z 21020KT 21/13 A2984 RMK A01 T02140131  RH  059%=      5-min Rain = 0
KUM1 241407Z 21025KT 21/13 A2984 RMK A01 T02130130  RH  059%=      5-min Rain = 0
KUM1 241408Z 21025KT 21/13 A2984 RMK A01 T02100129  RH  060%=      5-min Rain = 0
KUM1 241409Z 21025KT 21/13 A2984 RMK A01 T02090130  RH  060%=      5-min Rain = 0
KUM1 241410Z 21021G29KT 21/13 A2984 RMK A01 T02080129  RH  061%=      5-min Rain = 0
KUM1 241411Z 21015KT 21/13 A2984 RMK A01 T02090131  RH  061%=      5-min Rain = 0
KUM1 241412Z 21019KT 21/13 A2984 RMK A01 T02120132  RH  060%=      5-min Rain = 0
KUM1 241413Z 22021KT 21/13 A2984 RMK A01 T02130131  RH  059%=      5-min Rain = 0
KUM1 241414Z 21021KT 21/13 A2984 RMK A01 T02120130  RH  059%=      5-min Rain = 0
KUM1 241415Z 21021KT 21/13 A2984 RMK A01 T02120131  RH  060%=      5-min Rain = 0
KUM1 241416Z 21021G26KT 21/13 A2984 RMK A01 T02130131  RH  060%=      5-min Rain = 0
KUM1 241417Z 21019KT 21/13 A2985 RMK A01 T02130131  RH  059%=      5-min Rain = 0
KUM1 241418Z 21020KT 21/13 A2985 RMK A01 T02120131  RH  060%=      5-min Rain = 0
KUM1 241419Z 22023G28KT 21/13 A2985 RMK A01 T02110130  RH  060%=      5-min Rain = 0
KUM1 241420Z 22021G26KT 21/13 A2985 RMK A01 T02100130  RH  060%=      5-min Rain = 0
KUM1 241421Z 22021G26KT 21/13 A2985 RMK A01 T02120131  RH  060%=      5-min Rain = 0
KUM1 241422Z 22021G26KT 21/13 A2985 RMK A01 T02140132  RH  059%=      5-min Rain = 0
KUM1 241423Z 22020G25KT 22/13 A2985 RMK A01 T02150131  RH  058%=      5-min Rain = 0
KUM1 241424Z 23021KT 22/13 A2985 RMK A01 T02160132  RH  059%=      5-min Rain = 0
KUM1 241425Z 23019KT 22/13 A2985 RMK A01 T02150131  RH  059%=      5-min Rain = 0
KUM1 241426Z 22019KT 21/13 A2985 RMK A01 T02140131  RH  059%=      5-min Rain = 0
KUM1 241427Z 23019KT 22/13 A2985 RMK A01 T02160132  RH  059%=      5-min Rain = 0
KUM1 241428Z 23018KT 22/13 A2985 RMK A01 T02160132  RH  058%=      5-min Rain = 0
KUM1 241429Z 23019KT 22/13 A2985 RMK A01 T02160132  RH  059%=      5-min Rain = 0
KUM1 241430Z 24020KT 22/13 A2985 RMK A01 T02160132  RH  059%=      5-min Rain = 0
KUM1 241431Z 24018G24KT 22/13 A2985 RMK A01 T02160132  RH  059%=      5-min Rain = 0
KUM1 241432Z 24019G25KT 22/13 A2985 RMK A01 T02170132  RH  058%=      5-min Rain = 0
KUM1 241433Z 24020KT 22/13 A2985 RMK A01 T02180131  RH  058%=      5-min Rain = 0
KUM1 241434Z 23019KT 22/13 A2985 RMK A01 T02190131  RH  057%=      5-min Rain = 0
KUM1 241435Z 22020G25KT 22/13 A2985 RMK A01 T02190131  RH  057%=      5-min Rain = 0
KUM1 241436Z 23021KT 22/13 A2985 RMK A01 T02190131  RH  057%=      5-min Rain = 0
KUM1 241437Z 23020KT 22/13 A2985 RMK A01 T02190131  RH  057%=      5-min Rain = 0
KUM1 241438Z 23021KT 22/13 A2985 RMK A01 T02210131  RH  057%=      5-min Rain = 0
KUM1 241439Z 24021G26KT 22/13 A2985 RMK A01 T02210131  RH  057%=      5-min Rain = 0
KUM1 241440Z 23021KT 22/13 A2985 RMK A01 T02210131  RH  057%=      5-min Rain = 0
KUM1 241441Z 23022KT 22/13 A2985 RMK A01 T02210131  RH  056%=      5-min Rain = 0
KUM1 241442Z 24022KT 22/13 A2985 RMK A01 T02220131  RH  056%=      5-min Rain = 0
KUM1 241443Z 24020KT 22/13 A2985 RMK A01 T02220130  RH  056%=      5-min Rain = 0
KUM1 241444Z 22021G26KT 22/13 A2985 RMK A01 T02230130  RH  056%=      5-min Rain = 0
KUM1 241445Z 23020KT 22/13 A2985 RMK A01 T02230130  RH  056%=      5-min Rain = 0
KUM1 241446Z 23021G26KT 22/13 A2985 RMK A01 T02230129  RH  055%=      5-min Rain = 0
KUM1 241447Z 23021KT 22/13 A2985 RMK A01 T02240130  RH  055%=      5-min Rain = 0
KUM1 241448Z 23018KT 23/13 A2985 RMK A01 T02270131  RH  055%=      5-min Rain = 0
KUM1 241449Z 22021KT 23/13 A2985 RMK A01 T02290131  RH  054%=      5-min Rain = 0
KUM1 241450Z 22018KT 23/13 A2985 RMK A01 T02290131  RH  054%=      5-min Rain = 0
KUM1 241451Z 22019G25KT 23/13 A2985 RMK A01 T02300131  RH  054%=      5-min Rain = 0
KUM1 241452Z 22023KT 23/13 A2985 RMK A01 T02310131  RH  053%=      5-min Rain = 0
KUM1 241453Z 23020KT 23/13 A2985 RMK A01 T02310130  RH  053%=      5-min Rain = 0
KUM1 241454Z 23022KT 23/13 A2985 RMK A01 T02280127  RH  053%=      5-min Rain = 0
KUM1 241455Z 23021KT 23/13 A2984 RMK A01 T02270126  RH  053%=      5-min Rain = 0
KUM1 241456Z 22020KT 23/13 A2984 RMK A01 T02270127  RH  053%=      5-min Rain = 0
KUM1 241457Z 22020KT 23/13 A2984 RMK A01 T02300130  RH  053%=      5-min Rain = 0
KUM1 241458Z 22019KT 23/13 A2984 RMK A01 T02340130  RH  052%=      5-min Rain = 0
KUM1 241459Z 22019KT 24/13 A2984 RMK A01 T02350129  RH  051%=      5-min Rain = 0
KUM1 241500Z 22020KT 23/13 A2984 RMK A01 T02340127  RH  051%=      5-min Rain = 0
KUM1 241501Z 22020KT 23/13 A2984 RMK A01 T02320127  RH  052%=      5-min Rain = 0
KUM1 241502Z 22019KT 23/13 A2984 RMK A01 T02310126  RH  052%=      5-min Rain = 0
KUM1 241503Z 23018G23KT 23/13 A2984 RMK A01 T02320127  RH  052%=      5-min Rain = 0
KUM1 241504Z 22017KT 23/13 A2985 RMK A01 T02330129  RH  052%=      5-min Rain = 0
KUM1 241505Z 23017KT 23/13 A2985 RMK A01 T02340129  RH  052%=      5-min Rain = 0
KUM1 241506Z 23018KT 24/13 A2985 RMK A01 T02350129  RH  051%=      5-min Rain = 0
KUM1 241507Z 22019KT 24/13 A2985 RMK A01 T02350128  RH  051%=      5-min Rain = 0
KUM1 241508Z 22019KT 24/13 A2985 RMK A01 T02350128  RH  051%=      5-min Rain = 0
KUM1 241509Z 23015KT 24/13 A2985 RMK A01 T02360127  RH  050%=      5-min Rain = 0
KUM1 241510Z 23015KT 24/13 A2985 RMK A01 T02360126  RH  050%=      5-min Rain = 0
KUM1 241511Z 23014KT 24/13 A2985 RMK A01 T02390128  RH  050%=      5-min Rain = 0
KUM1 241512Z 22016G23KT 24/13 A2985 RMK A01 T02410126  RH  049%=      5-min Rain = 0
KUM1 241513Z 23018KT 24/12 A2984 RMK A01 T02420123  RH  048%=      5-min Rain = 0
KUM1 241514Z 24016KT 24/12 A2984 RMK A01 T02400122  RH  047%=      5-min Rain = 0
KUM1 241515Z 24016G22KT 24/12 A2985 RMK A01 T02420116  RH  045%=      5-min Rain = 0
KUM1 241516Z 22016KT 24/12 A2985 RMK A01 T02410122  RH  047%=      5-min Rain = 0
KUM1 241517Z 25013KT 24/13 A2985 RMK A01 T02430125  RH  048%=      5-min Rain = 0
KUM1 241518Z 24017KT 24/12 A2985 RMK A01 T02440122  RH  047%=      5-min Rain = 0
KUM1 241519Z 25017KT 24/12 A2985 RMK A01 T02440118  RH  045%=      5-min Rain = 0
KUM1 241520Z 24016G22KT 24/12 A2985 RMK A01 T02420117  RH  046%=      5-min Rain = 0
KUM1 241521Z 24018KT 24/12 A2985 RMK A01 T02420115  RH  045%=      5-min Rain = 0
KUM1 241522Z 25018KT 24/12 A2985 RMK A01 T02410115  RH  045%=      5-min Rain = 0
KUM1 241523Z 25017KT 24/12 A2985 RMK A01 T02380117  RH  047%=      5-min Rain = 0
KUM1 241524Z 23015KT 24/12 A2985 RMK A01 T02370121  RH  048%=      5-min Rain = 0
KUM1 241525Z 23015KT 24/13 A2985 RMK A01 T02410125  RH  048%=      5-min Rain = 0
KUM1 241526Z 23017KT 25/12 A2985 RMK A01 T02450122  RH  046%=      5-min Rain = 0
KUM1 241527Z 23019KT 24/12 A2985 RMK A01 T02440120  RH  046%=      5-min Rain = 0
KUM1 241528Z 23016KT 24/12 A2985 RMK A01 T02440119  RH  045%=      5-min Rain = 0
KUM1 241529Z 23015KT 25/12 A2985 RMK A01 T02450117  RH  045%=      5-min Rain = 0
KUM1 241530Z 23016G22KT 24/12 A2985 RMK A01 T02440116  RH  045%=      5-min Rain = 0
KUM1 241531Z 22017KT 24/12 A2985 RMK A01 T02440115  RH  045%=      5-min Rain = 0
KUM1 241532Z 22017KT 24/12 A2985 RMK A01 T02420115  RH  045%=      5-min Rain = 0
KUM1 241533Z 22017KT 24/12 A2985 RMK A01 T02420117  RH  045%=      5-min Rain = 0
KUM1 241534Z 22017KT 25/12 A2984 RMK A01 T02460119  RH  045%=      5-min Rain = 0
KUM1 241535Z 23017G22KT 25/12 A2984 RMK A01 T02470116  RH  044%=      5-min Rain = 0
KUM1 241536Z 23016KT 24/12 A2984 RMK A01 T02440116  RH  045%=      5-min Rain = 0
KUM1 241537Z 23016KT 25/12 A2984 RMK A01 T02450117  RH  045%=      5-min Rain = 0
KUM1 241538Z 23015KT 25/12 A2984 RMK A01 T02500119  RH  044%=      5-min Rain = 0
KUM1 241539Z 23014KT 25/12 A2984 RMK A01 T02500117  RH  043%=      5-min Rain = 0
KUM1 241540Z 24013G19KT 25/12 A2984 RMK A01 T02490116  RH  043%=      5-min Rain = 0
KUM1 241541Z 25015KT 25/11 A2984 RMK A01 T02500113  RH  042%=      5-min Rain = 0
KUM1 241542Z 26017KT 25/10 A2984 RMK A01 T02480099  RH  039%=      5-min Rain = 0
KUM1 241543Z 26014KT 25/09 A2984 RMK A01 T02480087  RH  036%=      5-min Rain = 0
KUM1 241544Z 25013KT 25/10 A2985 RMK A01 T02490099  RH  039%=      5-min Rain = 0
KUM1 241545Z 24014KT 25/10 A2985 RMK A01 T02510104  RH  039%=      5-min Rain = 0
KUM1 241546Z 25019KT 25/10 A2985 RMK A01 T02500098  RH  038%=      5-min Rain = 0
KUM1 241547Z 25017KT 25/09 A2985 RMK A01 T02490094  RH  037%=      5-min Rain = 0
KUM1 241548Z 25015KT 25/10 A2985 RMK A01 T02490098  RH  038%=      5-min Rain = 0
KUM1 241549Z 25016KT 25/10 A2985 RMK A01 T02490100  RH  039%=      5-min Rain = 0
KUM1 241550Z 25018KT 25/10 A2985 RMK A01 T02500102  RH  039%=      5-min Rain = 0
KUM1 241551Z 25016KT 25/10 A2985 RMK A01 T02490104  RH  040%=      5-min Rain = 0
KUM1 241552Z 24013KT 25/11 A2985 RMK A01 T02500106  RH  040%=      5-min Rain = 0
KUM1 241553Z 24014KT 25/11 A2985 RMK A01 T02520106  RH  040%=      5-min Rain = 0
KUM1 241554Z 24011G17KT 25/11 A2985 RMK A01 T02510107  RH  040%=      5-min Rain = 0
KUM1 241555Z 25014KT 25/11 A2985 RMK A01 T02540107  RH  040%=      5-min Rain = 0
KUM1 241556Z 24015KT 26/11 A2985 RMK A01 T02550105  RH  039%=      5-min Rain = 0
KUM1 241557Z 23016KT 25/11 A2985 RMK A01 T02530106  RH  040%=      5-min Rain = 0
KUM1 241558Z 24013KT 25/11 A2985 RMK A01 T02510107  RH  040%=      5-min Rain = 0
KUM1 241559Z 25015KT 25/11 A2984 RMK A01 T02500106  RH  040%=      5-min Rain = 0
KUM1 241600Z 24019KT 25/10 A2984 RMK A01 T02510097  RH  038%=      5-min Rain = 0
KUM1 241601Z 25016KT 25/09 A2985 RMK A01 T02520090  RH  036%=      5-min Rain = 0
KUM1 241602Z 27014KT 26/09 A2985 RMK A01 T02560090  RH  035%=      5-min Rain = 0
KUM1 241603Z 27014KT 26/09 A2985 RMK A01 T02560093  RH  036%=      5-min Rain = 0
KUM1 241604Z 26014KT 26/10 A2985 RMK A01 T02580102  RH  037%=      5-min Rain = 0
KUM1 241605Z 26017KT 26/10 A2984 RMK A01 T02620104  RH  037%=      5-min Rain = 0
KUM1 241606Z 25016KT 26/10 A2985 RMK A01 T02610103  RH  037%=      5-min Rain = 0
KUM1 241607Z 26015KT 26/10 A2985 RMK A01 T02590104  RH  038%=      5-min Rain = 0
KUM1 241608Z 27015KT 26/10 A2985 RMK A01 T02590103  RH  037%=      5-min Rain = 0
KUM1 241609Z 26013KT 26/11 A2985 RMK A01 T02590105  RH  038%=      5-min Rain = 0
KUM1 241610Z 26013KT 26/10 A2985 RMK A01 T02610104  RH  037%=      5-min Rain = 0
KUM1 241611Z 26013KT 26/11 A2985 RMK A01 T02580105  RH  038%=      5-min Rain = 0
KUM1 241612Z 26015KT 26/11 A2985 RMK A01 T02610107  RH  038%=      5-min Rain = 0
KUM1 241613Z 24014KT 26/11 A2985 RMK A01 T02600107  RH  038%=      5-min Rain = 0
KUM1 241614Z 26014KT 26/11 A2985 RMK A01 T02570106  RH  039%=      5-min Rain = 0
KUM1 241615Z 25015KT 26/11 A2985 RMK A01 T02560107  RH  039%=      5-min Rain = 0
KUM1 241616Z 25017KT 26/11 A2985 RMK A01 T02570106  RH  039%=      5-min Rain = 0
KUM1 241617Z 24013KT 26/11 A2985 RMK A01 T02570105  RH  038%=      5-min Rain = 0
KUM1 241618Z 24012KT 26/11 A2985 RMK A01 T02590106  RH  038%=      5-min Rain = 0
KUM1 241619Z 25016KT 26/10 A2985 RMK A01 T02590103  RH  038%=      5-min Rain = 0
KUM1 241620Z 25015KT 26/10 A2985 RMK A01 T02610103  RH  037%=      5-min Rain = 0
KUM1 241621Z 24014KT 26/10 A2985 RMK A01 T02620101  RH  036%=      5-min Rain = 0
KUM1 241622Z 26015KT 26/10 A2985 RMK A01 T02630102  RH  036%=      5-min Rain = 0
KUM1 241623Z 26014KT 26/10 A2985 RMK A01 T02630103  RH  037%=      5-min Rain = 0
KUM1 241624Z 26013KT 26/10 A2985 RMK A01 T02630103  RH  037%=      5-min Rain = 0
KUM1 241625Z 25012KT 27/10 A2985 RMK A01 T02650104  RH  036%=      5-min Rain = 0
KUM1 241626Z 25015KT 27/11 A2985 RMK A01 T02660106  RH  037%=      5-min Rain = 0
KUM1 241627Z 26012KT 27/11 A2985 RMK A01 T02670106  RH  036%=      5-min Rain = 0
KUM1 241628Z 26012KT 27/11 A2985 RMK A01 T02670107  RH  037%=      5-min Rain = 0
KUM1 241629Z 24015G20KT 27/11 A2985 RMK A01 T02700107  RH  036%=      5-min Rain = 0
KUM1 241630Z 25013KT 27/10 A2985 RMK A01 T02680104  RH  036%=      5-min Rain = 0
KUM1 241631Z 25013KT 27/10 A2985 RMK A01 T02660103  RH  036%=      5-min Rain = 0
KUM1 241632Z 25013G18KT 27/10 A2985 RMK A01 T02680102  RH  035%=      5-min Rain = 0
KUM1 241633Z 26013KT 27/10 A2985 RMK A01 T02690100  RH  035%=      5-min Rain = 0
KUM1 241634Z 26012KT 27/10 A2985 RMK A01 T02690100  RH  035%=      5-min Rain = 0
KUM1 241635Z 23010KT 27/10 A2985 RMK A01 T02680102  RH  035%=      5-min Rain = 0
KUM1 241636Z 23012G17KT 27/10 A2985 RMK A01 T02650102  RH  036%=      5-min Rain = 0
KUM1 241637Z 24014KT 27/10 A2985 RMK A01 T02660101  RH  035%=      5-min Rain = 0
KUM1 241638Z 24010KT 27/10 A2985 RMK A01 T02680103  RH  035%=      5-min Rain = 0
KUM1 241639Z 24009KT 27/10 A2985 RMK A01 T02740103  RH  034%=      5-min Rain = 0
KUM1 241640Z 24012KT 27/10 A2984 RMK A01 T02730102  RH  034%=      5-min Rain = 0
KUM1 241641Z 24014KT 27/10 A2984 RMK A01 T02720102  RH  034%=      5-min Rain = 0
KUM1 241642Z 23011KT 27/10 A2984 RMK A01 T02720101  RH  034%=      5-min Rain = 0
KUM1 241643Z 24010KT 27/10 A2984 RMK A01 T02730104  RH  035%=      5-min Rain = 0
KUM1 241644Z 23012KT 28/10 A2984 RMK A01 T02770099  RH  033%=      5-min Rain = 0
KUM1 241645Z 26014KT 28/10 A2984 RMK A01 T02770097  RH  033%=      5-min Rain = 0
KUM1 241646Z 28014KT 28/09 A2985 RMK A01 T02790087  RH  030%=      5-min Rain = 0
KUM1 241647Z 28014KT 28/08 A2985 RMK A01 T02810084  RH  029%=      5-min Rain = 0
KUM1 241648Z 26015KT 28/08 A2985 RMK A01 T02790084  RH  029%=      5-min Rain = 0
KUM1 241649Z 26014KT 28/08 A2985 RMK A01 T02780082  RH  029%=      5-min Rain = 0
KUM1 241650Z 25015KT 28/08 A2985 RMK A01 T02800081  RH  029%=      5-min Rain = 0
KUM1 241651Z 26016KT 28/08 A2985 RMK A01 T02820078  RH  028%=      5-min Rain = 0
KUM1 241652Z 27011KT 28/08 A2985 RMK A01 T02770078  RH  028%=      5-min Rain = 0
KUM1 241653Z 27012KT 28/08 A2985 RMK A01 T02760078  RH  029%=      5-min Rain = 0
KUM1 241654Z 26011KT 28/08 A2985 RMK A01 T02770081  RH  029%=      5-min Rain = 0
KUM1 241655Z 24012KT 28/09 A2985 RMK A01 T02770085  RH  030%=      5-min Rain = 0
KUM1 241656Z 23012KT 28/08 A2985 RMK A01 T02770084  RH  030%=      5-min Rain = 0
KUM1 241657Z 22011KT 27/08 A2985 RMK A01 T02740083  RH  030%=      5-min Rain = 0
KUM1 241658Z 24016G29KT 28/09 A2984 RMK A01 T02780087  RH  030%=      5-min Rain = 0
KUM1 241659Z 28015KT 29/08 A2985 RMK A01 T02850078  RH  027%=      5-min Rain = 0
KUM1 241700Z 29014KT 29/07 A2985 RMK A01 T02850070  RH  026%=      5-min Rain = 0
KUM1 241701Z 29013KT 28/07 A2985 RMK A01 T02820068  RH  026%=      5-min Rain = 0
KUM1 241702Z 28019KT 28/07 A2985 RMK A01 T02800073  RH  027%=      5-min Rain = 0
KUM1 241703Z 27015KT 28/08 A2985 RMK A01 T02810075  RH  027%=      5-min Rain = 0
KUM1 241704Z 26009KT 28/08 A2985 RMK A01 T02810080  RH  028%=      5-min Rain = 0
KUM1 241705Z 26011KT 28/08 A2985 RMK A01 T02800081  RH  029%=      5-min Rain = 0
KUM1 241706Z 27017KT 28/07 A2985 RMK A01 T02810073  RH  027%=      5-min Rain = 0
KUM1 241707Z 27013KT 28/07 A2985 RMK A01 T02830069  RH  026%=      5-min Rain = 0
KUM1 241708Z 27012KT 28/07 A2985 RMK A01 T02800068  RH  026%=      5-min Rain = 0
KUM1 241709Z 28011KT 28/07 A2985 RMK A01 T02800068  RH  026%=      5-min Rain = 0
KUM1 241710Z 28009KT 28/07 A2985 RMK A01 T02800068  RH  026%=      5-min Rain = 0
KUM1 241711Z 28006G12KT 27/06 A2985 RMK A01 T02740064  RH  026%=      5-min Rain = 0
KUM1 241712Z 30009KT 27/07 A2985 RMK A01 T02730065  RH  027%=      5-min Rain = 0
KUM1 241713Z 31011KT 27/07 A2985 RMK A01 T02730066  RH  027%=      5-min Rain = 0
KUM1 241714Z 30007KT 27/07 A2985 RMK A01 T02740065  RH  027%=      5-min Rain = 0
KUM1 241715Z 29009KT 28/07 A2985 RMK A01 T02750068  RH  027%=      5-min Rain = 0
KUM1 241716Z 30015KT 28/07 A2985 RMK A01 T02770068  RH  027%=      5-min Rain = 0
KUM1 241717Z 31013KT 28/07 A2985 RMK A01 T02780068  RH  026%=      5-min Rain = 0
KUM1 241718Z 30010KT 28/07 A2985 RMK A01 T02770068  RH  027%=      5-min Rain = 0
KUM1 241719Z 30010KT 28/07 A2985 RMK A01 T02780070  RH  027%=      5-min Rain = 0
KUM1 241720Z 29011KT 28/07 A2985 RMK A01 T02810067  RH  026%=      5-min Rain = 0
KUM1 241721Z 29012KT 28/07 A2985 RMK A01 T02790069  RH  026%=      5-min Rain = 0
KUM1 241722Z 30015KT 28/07 A2985 RMK A01 T02820071  RH  026%=      5-min Rain = 0
KUM1 241723Z 30012KT 28/07 A2985 RMK A01 T02830070  RH  026%=      5-min Rain = 0
KUM1 241724Z 30013KT 29/07 A2985 RMK A01 T02860071  RH  026%=      5-min Rain = 0
KUM1 241725Z 30010KT 29/07 A2985 RMK A01 T02860068  RH  025%=      5-min Rain = 0
KUM1 241726Z 28014G19KT 29/07 A2985 RMK A01 T02850071  RH  026%=      5-min Rain = 0
KUM1 241727Z 28015KT 29/07 A2985 RMK A01 T02860070  RH  026%=      5-min Rain = 0
KUM1 241728Z 28014KT 29/07 A2985 RMK A01 T02870071  RH  026%=      5-min Rain = 0
KUM1 241729Z 28011KT 29/07 A2985 RMK A01 T02870070  RH  025%=      5-min Rain = 0
KUM1 241730Z 26009KT 29/07 A2985 RMK A01 T02870071  RH  026%=      5-min Rain = 0
KUM1 241731Z 27013KT 29/07 A2985 RMK A01 T02890073  RH  026%=      5-min Rain = 0
KUM1 241732Z 27012KT 29/07 A2985 RMK A01 T02920071  RH  025%=      5-min Rain = 0
KUM1 241733Z 26013KT 29/07 A2985 RMK A01 T02890069  RH  025%=      5-min Rain = 0
KUM1 241734Z 28012KT 29/07 A2985 RMK A01 T02880071  RH  025%=      5-min Rain = 0
KUM1 241735Z 27012KT 29/07 A2985 RMK A01 T02880069  RH  025%=      5-min Rain = 0
KUM1 241736Z 27008KT 28/07 A2985 RMK A01 T02830069  RH  026%=      5-min Rain = 0
KUM1 241737Z 28007KT 28/07 A2985 RMK A01 T02800069  RH  026%=      5-min Rain = 0
KUM1 241738Z 30012KT 28/07 A2985 RMK A01 T02810071  RH  027%=      5-min Rain = 0
KUM1 241739Z 30010KT 28/07 A2985 RMK A01 T02820071  RH  026%=      5-min Rain = 0
KUM1 241740Z 31007KT 28/07 A2985 RMK A01 T02810069  RH  026%=      5-min Rain = 0
KUM1 241741Z 31012KT 28/07 A2985 RMK A01 T02800070  RH  027%=      5-min Rain = 0
KUM1 241742Z 29013KT 28/07 A2985 RMK A01 T02810070  RH  026%=      5-min Rain = 0
KUM1 241743Z 30011G16KT 28/07 A2985 RMK A01 T02800069  RH  026%=      5-min Rain = 0
KUM1 241744Z 32012KT 28/07 A2985 RMK A01 T02800071  RH  027%=      5-min Rain = 0
KUM1 241745Z 29011KT 28/07 A2985 RMK A01 T02830071  RH  026%=      5-min Rain = 0
KUM1 241746Z 29010KT 29/07 A2985 RMK A01 T02850071  RH  026%=      5-min Rain = 0
KUM1 241747Z 31012KT 29/07 A2985 RMK A01 T02870071  RH  026%=      5-min Rain = 0
KUM1 241748Z 31009KT 28/07 A2985 RMK A01 T02830068  RH  026%=      5-min Rain = 0
KUM1 241749Z 29013KT 28/07 A2985 RMK A01 T02810071  RH  026%=      5-min Rain = 0
KUM1 241750Z 30014KT 28/07 A2985 RMK A01 T02840070  RH  026%=      5-min Rain = 0
KUM1 241751Z 31014KT 29/07 A2985 RMK A01 T02850069  RH  026%=      5-min Rain = 0
KUM1 241752Z 32010KT 28/07 A2985 RMK A01 T02840068  RH  026%=      5-min Rain = 0
KUM1 241753Z 30010KT 28/07 A2985 RMK A01 T02820069  RH  026%=      5-min Rain = 0
KUM1 241754Z 28009KT 28/07 A2985 RMK A01 T02820069  RH  026%=      5-min Rain = 0
KUM1 241755Z 26008KT 28/07 A2985 RMK A01 T02810068  RH  026%=      5-min Rain = 0
KUM1 241756Z 25008KT 28/07 A2985 RMK A01 T02800068  RH  026%=      5-min Rain = 0
KUM1 241757Z 26010KT 29/07 A2985 RMK A01 T02850069  RH  026%=      5-min Rain = 0
KUM1 241758Z 25008KT 28/07 A2985 RMK A01 T02840068  RH  026%=      5-min Rain = 0
KUM1 241759Z 27005KT 28/07 A2985 RMK A01 T02830069  RH  026%=      5-min Rain = 0
KUM1 241800Z 27009KT 28/07 A2985 RMK A01 T02820068  RH  026%=      5-min Rain = 0
KUM1 241801Z 27007KT 28/07 A2985 RMK A01 T02800067  RH  026%=      5-min Rain = 0
KUM1 241802Z 27009G15KT 28/07 A2985 RMK A01 T02800070  RH  027%=      5-min Rain = 0
KUM1 241803Z 28011KT 28/07 A2985 RMK A01 T02830072  RH  027%=      5-min Rain = 0
KUM1 241804Z 28014KT 29/08 A2985 RMK A01 T02870075  RH  026%=      5-min Rain = 0
KUM1 241805Z 29012KT 29/08 A2985 RMK A01 T02880075  RH  026%=      5-min Rain = 0
KUM1 241806Z 29012KT 29/07 A2985 RMK A01 T02870072  RH  026%=      5-min Rain = 0
KUM1 241807Z 29006KT 28/07 A2985 RMK A01 T02830070  RH  026%=      5-min Rain = 0
KUM1 241808Z 30006KT 28/07 A2985 RMK A01 T02800069  RH  026%=      5-min Rain = 0
KUM1 241809Z 25006KT 28/07 A2985 RMK A01 T02800071  RH  027%=      5-min Rain = 0
KUM1 241810Z 29009KT 28/07 A2985 RMK A01 T02810070  RH  026%=      5-min Rain = 0
KUM1 241811Z 30008KT 28/07 A2985 RMK A01 T02820069  RH  026%=      5-min Rain = 0
KUM1 241812Z 28009KT 28/07 A2985 RMK A01 T02840070  RH  026%=      5-min Rain = 0
KUM1 241813Z 29005KT 28/07 A2985 RMK A01 T02830070  RH  026%=      5-min Rain = 0
KUM1 241814Z 31006KT 28/07 A2985 RMK A01 T02810069  RH  026%=      5-min Rain = 0
KUM1 241815Z 31008KT 28/07 A2985 RMK A01 T02800071  RH  027%=      5-min Rain = 0
KUM1 241816Z 30013KT 28/08 A2985 RMK A01 T02840077  RH  027%=      5-min Rain = 0
KUM1 241817Z 28009KT 29/08 A2985 RMK A01 T02850075  RH  027%=      5-min Rain = 0
KUM1 241818Z 26007KT 29/07 A2985 RMK A01 T02860068  RH  025%=      5-min Rain = 0
KUM1 241819Z 32007G12KT 29/07 A2985 RMK A01 T02860072  RH  026%=      5-min Rain = 0
KUM1 241820Z 31008G14KT 29/07 A2985 RMK A01 T02870071  RH  026%=      5-min Rain = 0
KUM1 241821Z 33003KT 28/07 A2985 RMK A01 T02830068  RH  026%=      5-min Rain = 0
KUM1 241822Z 32006KT 28/07 A2985 RMK A01 T02810070  RH  026%=      5-min Rain = 0
KUM1 241823Z 31009KT 28/07 A2985 RMK A01 T02820070  RH  026%=      5-min Rain = 0
KUM1 241824Z 31009KT 29/07 A2985 RMK A01 T02870070  RH  025%=      5-min Rain = 0
KUM1 241825Z 28009KT 29/07 A2985 RMK A01 T02890068  RH  025%=      5-min Rain = 0
KUM1 241826Z 26010KT 29/07 A2985 RMK A01 T02900067  RH  025%=      5-min Rain = 0
KUM1 241827Z 28008KT 29/07 A2985 RMK A01 T02870065  RH  025%=      5-min Rain = 0
KUM1 241828Z 29006KT 28/06 A2985 RMK A01 T02840063  RH  025%=      5-min Rain = 0
KUM1 241829Z 27004KT 28/06 A2985 RMK A01 T02810063  RH  025%=      5-min Rain = 0
KUM1 241830Z 29004KT 28/07 A2985 RMK A01 T02820066  RH  026%=      5-min Rain = 0
KUM1 241831Z 21005KT 29/07 A2985 RMK A01 T02870069  RH  025%=      5-min Rain = 0
KUM1 241832Z 26007G13KT 29/07 A2985 RMK A01 T02900069  RH  025%=      5-min Rain = 0
KUM1 241833Z 27011KT 29/06 A2984 RMK A01 T02870061  RH  024%=      5-min Rain = 0
KUM1 241834Z 26008KT 28/06 A2985 RMK A01 T02830061  RH  024%=      5-min Rain = 0
KUM1 241835Z 28007KT 29/06 A2985 RMK A01 T02860064  RH  025%=      5-min Rain = 0
KUM1 241836Z 27006KT 29/06 A2985 RMK A01 T02870063  RH  024%=      5-min Rain = 0
KUM1 241837Z 24006KT 29/07 A2985 RMK A01 T02860066  RH  025%=      5-min Rain = 0
KUM1 241838Z 27008KT 29/07 A2984 RMK A01 T02850066  RH  025%=      5-min Rain = 0
KUM1 241839Z 28007KT 29/07 A2984 RMK A01 T02860069  RH  025%=      5-min Rain = 0
KUM1 241840Z 29004KT 29/07 A2984 RMK A01 T02850067  RH  025%=      5-min Rain = 0
KUM1 241841Z 26002KT 28/07 A2984 RMK A01 T02820068  RH  026%=      5-min Rain = 0
KUM1 241842Z 27004KT 28/07 A2984 RMK A01 T02810068  RH  026%=      5-min Rain = 0
KUM1 241843Z 27009KT 28/07 A2984 RMK A01 T02830067  RH  025%=      5-min Rain = 0
KUM1 241844Z 26009G15KT 29/06 A2984 RMK A01 T02860061  RH  024%=      5-min Rain = 0
KUM1 241845Z 26011KT 29/06 A2984 RMK A01 T02850059  RH  024%=      5-min Rain = 0
KUM1 241846Z 25009KT 28/06 A2984 RMK A01 T02840059  RH  024%=      5-min Rain = 0
KUM1 241847Z 24009KT 29/06 A2984 RMK A01 T02870061  RH  024%=      5-min Rain = 0
KUM1 241848Z 24007KT 29/06 A2984 RMK A01 T02880060  RH  024%=      5-min Rain = 0
KUM1 241849Z 23007KT 29/06 A2984 RMK A01 T02880059  RH  024%=      5-min Rain = 0
KUM1 241850Z 24004KT 29/06 A2984 RMK A01 T02890061  RH  024%=      5-min Rain = 0
KUM1 241851Z 23005KT 29/06 A2984 RMK A01 T02930064  RH  024%=      5-min Rain = 0
KUM1 241852Z 24003KT 30/06 A2984 RMK A01 T02950062  RH  023%=      5-min Rain = 0
KUM1 241853Z 25005KT 29/06 A2984 RMK A01 T02930062  RH  023%=      5-min Rain = 0
KUM1 241854Z 26004KT 29/06 A2984 RMK A01 T02900062  RH  024%=      5-min Rain = 0
KUM1 241855Z 29006KT 29/06 A2984 RMK A01 T02890063  RH  024%=      5-min Rain = 0
KUM1 241856Z 31004KT 29/06 A2984 RMK A01 T02880063  RH  024%=      5-min Rain = 0
KUM1 241857Z 29004KT 29/06 A2984 RMK A01 T02860064  RH  025%=      5-min Rain = 0
KUM1 241858Z 31007KT 29/08 A2984 RMK A01 T02890075  RH  026%=      5-min Rain = 0
KUM1 241859Z 32008KT 29/08 A2984 RMK A01 T02920076  RH  026%=      5-min Rain = 0
KUM1 241900Z 32010KT 29/08 A2984 RMK A01 T02940076  RH  025%=      5-min Rain = 0
KUM1 241901Z 32008KT 29/08 A2984 RMK A01 T02940075  RH  025%=      5-min Rain = 0
KUM1 241902Z 31008KT 29/07 A2984 RMK A01 T02920074  RH  025%=      5-min Rain = 0
KUM1 241903Z 29008KT 29/07 A2984 RMK A01 T02900074  RH  026%=      5-min Rain = 0
KUM1 241904Z 31006KT 29/07 A2984 RMK A01 T02890074  RH  026%=      5-min Rain = 0
KUM1 241905Z 24010KT 29/07 A2984 RMK A01 T02890065  RH  024%=      5-min Rain = 0
KUM1 241906Z 23010KT 30/06 A2984 RMK A01 T02950055  RH  022%=      5-min Rain = 0
KUM1 241907Z 24008KT 30/05 A2984 RMK A01 T02960053  RH  021%=      5-min Rain = 0
KUM1 241908Z 25007KT 29/05 A2984 RMK A01 T02940054  RH  022%=      5-min Rain = 0
KUM1 241909Z 26005KT 29/05 A2984 RMK A01 T02920053  RH  022%=      5-min Rain = 0
KUM1 241910Z 19002KT 29/05 A2984 RMK A01 T02890051  RH  022%=      5-min Rain = 0
KUM1 241911Z 15005KT 29/05 A2983 RMK A01 T02880053  RH  023%=      5-min Rain = 0
KUM1 241912Z 28002KT 29/05 A2983 RMK A01 T02900053  RH  022%=      5-min Rain = 0
KUM1 241913Z 31004KT 29/05 A2983 RMK A01 T02920053  RH  022%=      5-min Rain = 0
KUM1 241914Z 27004KT 29/05 A2983 RMK A01 T02920054  RH  022%=      5-min Rain = 0
KUM1 241915Z 24007KT 30/06 A2983 RMK A01 T02960063  RH  023%=      5-min Rain = 0
KUM1 241916Z 24010KT 30/06 A2983 RMK A01 T03010064  RH  022%=      5-min Rain = 0
KUM1 241917Z 24009KT 30/06 A2983 RMK A01 T02990060  RH  022%=      5-min Rain = 0
KUM1 241918Z 24008KT 29/06 A2983 RMK A01 T02940058  RH  022%=      5-min Rain = 0
KUM1 241919Z 20006KT 29/06 A2983 RMK A01 T02930060  RH  023%=      5-min Rain = 0
KUM1 241920Z 18005KT 29/06 A2983 RMK A01 T02930060  RH  023%=      5-min Rain = 0
KUM1 241921Z 18004KT 29/06 A2983 RMK A01 T02940060  RH  023%=      5-min Rain = 0
KUM1 241922Z 13003KT 29/06 A2983 RMK A01 T02940058  RH  023%=      5-min Rain = 0
KUM1 241923Z 22004KT 29/06 A2983 RMK A01 T02920061  RH  023%=      5-min Rain = 0
KUM1 241924Z 27004KT 29/06 A2983 RMK A01 T02930060  RH  023%=      5-min Rain = 0
KUM1 241925Z 34002KT 29/06 A2983 RMK A01 T02930061  RH  023%=      5-min Rain = 0
KUM1 241926Z 32004KT 29/06 A2983 RMK A01 T02940060  RH  023%=      5-min Rain = 0
KUM1 241927Z 27009KT 29/07 A2983 RMK A01 T02940067  RH  024%=      5-min Rain = 0
KUM1 241928Z 27010KT 30/07 A2982 RMK A01 T02970068  RH  024%=      5-min Rain = 0
KUM1 241929Z 24008KT 30/07 A2982 RMK A01 T03010066  RH  023%=      5-min Rain = 0
KUM1 241930Z 26009KT 30/06 A2982 RMK A01 T02990062  RH  022%=      5-min Rain = 0
KUM1 241931Z 26008KT 30/06 A2982 RMK A01 T02980059  RH  022%=      5-min Rain = 0
KUM1 241932Z 26005KT 30/06 A2982 RMK A01 T02950059  RH  023%=      5-min Rain = 0
KUM1 241933Z 23005KT 30/06 A2982 RMK A01 T02970060  RH  022%=      5-min Rain = 0
KUM1 241934Z 22006KT 30/06 A2982 RMK A01 T03000057  RH  022%=      5-min Rain = 0
KUM1 241935Z 18005KT 30/05 A2982 RMK A01 T02990053  RH  021%=      5-min Rain = 0
KUM1 241936Z 17005KT 30/05 A2982 RMK A01 T02970053  RH  021%=      5-min Rain = 0
KUM1 241937Z 16005KT 30/06 A2982 RMK A01 T02950056  RH  022%=      5-min Rain = 0
KUM1 241938Z 21002KT 29/06 A2982 RMK A01 T02940059  RH  023%=      5-min Rain = 0
KUM1 241939Z 31003G9KT 30/06 A2982 RMK A01 T02950059  RH  022%=      5-min Rain = 0
KUM1 241940Z 31011KT 30/06 A2982 RMK A01 T02970064  RH  023%=      5-min Rain = 0
KUM1 241941Z 32010KT 30/06 A2982 RMK A01 T02980064  RH  023%=      5-min Rain = 0
KUM1 241942Z 34004KT 30/06 A2982 RMK A01 T02960063  RH  023%=      5-min Rain = 0
KUM1 241943Z 31006KT 29/06 A2982 RMK A01 T02940063  RH  023%=      5-min Rain = 0
KUM1 241944Z 33003KT 29/06 A2982 RMK A01 T02930063  RH  023%=      5-min Rain = 0
KUM1 241945Z 02001KT 29/06 A2982 RMK A01 T02930064  RH  024%=      5-min Rain = 0
KUM1 241946Z 03001KT 30/06 A2982 RMK A01 T02970064  RH  023%=      5-min Rain = 0
KUM1 241947Z 03002KT 30/06 A2982 RMK A01 T02990063  RH  023%=      5-min Rain = 0
KUM1 241948Z 28003KT 30/07 A2982 RMK A01 T03020065  RH  023%=      5-min Rain = 0
KUM1 241949Z 28005KT 30/06 A2982 RMK A01 T03020063  RH  022%=      5-min Rain = 0
KUM1 241950Z 22003KT 30/06 A2982 RMK A01 T03000062  RH  022%=      5-min Rain = 0
KUM1 241951Z 21002KT 30/06 A2982 RMK A01 T03000063  RH  022%=      5-min Rain = 0
KUM1 241952Z 17003KT 30/06 A2982 RMK A01 T03010058  RH  022%=      5-min Rain = 0
KUM1 241953Z 17003KT 30/05 A2982 RMK A01 T03020051  RH  020%=      5-min Rain = 0
KUM1 241954Z 15003KT 30/05 A2981 RMK A01 T03040049  RH  020%=      5-min Rain = 0
KUM1 241955Z 16005KT 31/05 A2981 RMK A01 T03060050  RH  020%=      5-min Rain = 0
KUM1 241956Z 19005KT 31/05 A2981 RMK A01 T03070051  RH  020%=      5-min Rain = 0
KUM1 241957Z 20005KT 31/05 A2981 RMK A01 T03080054  RH  020%=      5-min Rain = 0
KUM1 241958Z 20003KT 31/05 A2981 RMK A01 T03100052  RH  020%=      5-min Rain = 0
KUM1 241959Z 30002KT 31/05 A2981 RMK A01 T03100050  RH  019%=      5-min Rain = 0
KUM1 242000Z 28006G11KT 31/05 A2981 RMK A01 T03080054  RH  020%=      5-min Rain = 0
KUM1 242001Z 23006KT 31/05 A2981 RMK A01 T03090053  RH  020%=      5-min Rain = 0
KUM1 242002Z 27007KT 31/05 A2981 RMK A01 T03120053  RH  020%=      5-min Rain = 0
KUM1 242003Z 28010G15KT 31/05 A2981 RMK A01 T03130050  RH  019%=      5-min Rain = 0
KUM1 242004Z 24007KT 31/05 A2981 RMK A01 T03120052  RH  019%=      5-min Rain = 0
KUM1 242005Z 23008KT 32/05 A2981 RMK A01 T03150052  RH  019%=      5-min Rain = 0
KUM1 242006Z 24009KT 32/05 A2981 RMK A01 T03150051  RH  019%=      5-min Rain = 0
KUM1 242007Z 24006KT 31/05 A2981 RMK A01 T03130049  RH  019%=      5-min Rain = 0
KUM1 242008Z 29006KT 31/05 A2981 RMK A01 T03100048  RH  019%=      5-min Rain = 0
KUM1 242009Z 30005G10KT 31/05 A2981 RMK A01 T03080049  RH  019%=      5-min Rain = 0
KUM1 242010Z 27005KT 31/05 A2981 RMK A01 T03060049  RH  020%=      5-min Rain = 0
KUM1 242011Z 23009KT 31/05 A2981 RMK A01 T03070054  RH  020%=      5-min Rain = 0
KUM1 242012Z 23008KT 31/06 A2981 RMK A01 T03120055  RH  020%=      5-min Rain = 0
KUM1 242013Z 26009KT 31/05 A2981 RMK A01 T03100054  RH  020%=      5-min Rain = 0
KUM1 242014Z 28011KT 31/05 A2981 RMK A01 T03080053  RH  020%=      5-min Rain = 0
KUM1 242015Z 26009KT 30/05 A2981 RMK A01 T03040053  RH  020%=      5-min Rain = 0
KUM1 242016Z 27013KT 30/06 A2981 RMK A01 T03040055  RH  021%=      5-min Rain = 0
KUM1 242017Z 28013KT 31/06 A2981 RMK A01 T03060057  RH  021%=      5-min Rain = 0
KUM1 242018Z 30008KT 31/05 A2981 RMK A01 T03060054  RH  020%=      5-min Rain = 0
KUM1 242019Z 33007KT 30/05 A2981 RMK A01 T03010052  RH  021%=      5-min Rain = 0
KUM1 242020Z 33004KT 30/05 A2981 RMK A01 T02970051  RH  021%=      5-min Rain = 0
KUM1 242021Z 26002KT 30/05 A2981 RMK A01 T02970053  RH  021%=      5-min Rain = 0
KUM1 242022Z 25008G13KT 30/06 A2981 RMK A01 T02990056  RH  021%=      5-min Rain = 0
KUM1 242023Z 24007KT 31/06 A2981 RMK A01 T03050057  RH  021%=      5-min Rain = 0
KUM1 242024Z 26008KT 31/06 A2981 RMK A01 T03080057  RH  021%=      5-min Rain = 0
KUM1 242025Z 27009KT 31/06 A2981 RMK A01 T03130057  RH  020%=      5-min Rain = 0
KUM1 242026Z 25009KT 31/05 A2981 RMK A01 T03120054  RH  020%=      5-min Rain = 0
KUM1 242027Z 24011KT 31/05 A2981 RMK A01 T03090053  RH  020%=      5-min Rain = 0
KUM1 242028Z 22007KT 30/05 A2981 RMK A01 T03030051  RH  020%=      5-min Rain = 0
KUM1 242029Z 16006KT 30/06 A2981 RMK A01 T03030055  RH  021%=      5-min Rain = 0
KUM1 242030Z 15003KT 31/05 A2981 RMK A01 T03050054  RH  021%=      5-min Rain = 0
KUM1 242031Z 13001KT 31/05 A298 RMK A01 T03060054  RH  020%=      5-min Rain = 0
KUM1 242032Z 29006KT 31/06 A298 RMK A01 T03070055  RH  020%=      5-min Rain = 0
KUM1 242033Z 30006KT 31/05 A298 RMK A01 T03070053  RH  020%=      5-min Rain = 0
KUM1 242034Z 33004KT 31/05 A298 RMK A01 T03060053  RH  020%=      5-min Rain = 0
KUM1 242035Z 35003KT 31/05 A298 RMK A01 T03060053  RH  020%=      5-min Rain = 0
KUM1 242036Z 34005KT 31/06 A298 RMK A01 T03070057  RH  021%=      5-min Rain = 0
KUM1 242037Z 32007KT 31/06 A298 RMK A01 T03110055  RH  020%=      5-min Rain = 0
KUM1 242038Z 35006KT 31/05 A298 RMK A01 T03090052  RH  020%=      5-min Rain = 0
KUM1 242039Z 33005KT 31/05 A298 RMK A01 T03070054  RH  020%=      5-min Rain = 0
KUM1 242040Z 30005KT 31/05 A298 RMK A01 T03100054  RH  020%=      5-min Rain = 0
KUM1 242041Z 28003KT 31/05 A298 RMK A01 T03090052  RH  020%=      5-min Rain = 0
KUM1 242042Z 24006KT 31/05 A298 RMK A01 T03070053  RH  020%=      5-min Rain = 0
KUM1 242043Z 22005KT 31/05 A298 RMK A01 T03060052  RH  020%=      5-min Rain = 0
KUM1 242044Z 23007KT 31/05 A298 RMK A01 T03050050  RH  020%=      5-min Rain = 0
KUM1 242045Z 25007KT 31/05 A298 RMK A01 T03050048  RH  020%=      5-min Rain = 0
KUM1 242046Z 23007KT 31/05 A298 RMK A01 T03050047  RH  020%=      5-min Rain = 0
KUM1 242047Z 23007KT 30/05 A2979 RMK A01 T03040048  RH  020%=      5-min Rain = 0
KUM1 242048Z 24006KT 30/05 A2979 RMK A01 T03040048  RH  020%=      5-min Rain = 0
KUM1 242049Z 25003KT 30/05 A2979 RMK A01 T03040047  RH  020%=      5-min Rain = 0
KUM1 242050Z 24005KT 31/05 A2979 RMK A01 T03060048  RH  020%=      5-min Rain = 0
KUM1 242051Z 21005KT 31/05 A2979 RMK A01 T03070049  RH  020%=      5-min Rain = 0
KUM1 242052Z 23007KT 31/05 A2979 RMK A01 T03070048  RH  019%=      5-min Rain = 0
KUM1 242053Z 19003KT 31/05 A2979 RMK A01 T03050048  RH  020%=      5-min Rain = 0
KUM1 242054Z 15002KT 31/05 A2979 RMK A01 T03070050  RH  020%=      5-min Rain = 0
KUM1 242055Z 24002KT 31/05 A2979 RMK A01 T03090050  RH  020%=      5-min Rain = 0
KUM1 242056Z 23007KT 31/05 A2979 RMK A01 T03100051  RH  020%=      5-min Rain = 0
KUM1 242057Z 23011KT 31/05 A2979 RMK A01 T03130054  RH  020%=      5-min Rain = 0
KUM1 242058Z 24011KT 31/05 A2979 RMK A01 T03140052  RH  019%=      5-min Rain = 0
KUM1 242059Z 26007KT 31/05 A2979 RMK A01 T03120051  RH  019%=      5-min Rain = 0
KUM1 242100Z 28009KT 31/05 A2978 RMK A01 T03110049  RH  019%=      5-min Rain = 0
KUM1 242101Z 26008KT 31/05 A2978 RMK A01 T03110048  RH  019%=      5-min Rain = 0
KUM1 242102Z 25007KT 31/05 A2978 RMK A01 T03090048  RH  019%=      5-min Rain = 0
KUM1 242103Z 26007KT 31/05 A2978 RMK A01 T03090050  RH  019%=      5-min Rain = 0
KUM1 242104Z 27007KT 31/05 A2978 RMK A01 T03090050  RH  019%=      5-min Rain = 0
KUM1 242105Z 27006KT 31/05 A2978 RMK A01 T03080048  RH  019%=      5-min Rain = 0
KUM1 242106Z 24005KT 31/05 A2978 RMK A01 T03050047  RH  020%=      5-min Rain = 0
KUM1 242107Z 35001KT 31/05 A2978 RMK A01 T03050047  RH  020%=      5-min Rain = 0
KUM1 242108Z 33001KT 31/05 A2978 RMK A01 T03070048  RH  020%=      5-min Rain = 0
KUM1 242109Z 25004KT 31/05 A2978 RMK A01 T03100049  RH  019%=      5-min Rain = 0
KUM1 242110Z 26006KT 31/05 A2978 RMK A01 T03120050  RH  019%=      5-min Rain = 0
KUM1 242111Z 27006KT 32/05 A2978 RMK A01 T03170052  RH  019%=      5-min Rain = 0
KUM1 242112Z 28007G13KT 32/05 A2978 RMK A01 T03200053  RH  019%=      5-min Rain = 0
KUM1 242113Z 25011KT 32/06 A2977 RMK A01 T03230055  RH  019%=      5-min Rain = 0
KUM1 242114Z 25013G18KT 32/05 A2977 RMK A01 T03230052  RH  018%=      5-min Rain = 0
KUM1 242115Z 26009KT 32/05 A2977 RMK A01 T03160049  RH  019%=      5-min Rain = 0
KUM1 242116Z 26012KT 32/05 A2977 RMK A01 T03160052  RH  019%=      5-min Rain = 0
KUM1 242117Z 27012KT 32/05 A2977 RMK A01 T03200053  RH  019%=      5-min Rain = 0
KUM1 242118Z 26011KT 32/05 A2977 RMK A01 T03190049  RH  018%=      5-min Rain = 0
KUM1 242119Z 27011KT 32/05 A2977 RMK A01 T03150049  RH  019%=      5-min Rain = 0
KUM1 242120Z 27010KT 31/05 A2977 RMK A01 T03130048  RH  019%=      5-min Rain = 0
KUM1 242121Z 26013KT 32/05 A2977 RMK A01 T03150049  RH  019%=      5-min Rain = 0
KUM1 242122Z 26013KT 32/05 A2977 RMK A01 T03180049  RH  018%=      5-min Rain = 0
KUM1 242123Z 26010KT 32/05 A2977 RMK A01 T03160046  RH  018%=      5-min Rain = 0
KUM1 242124Z 27006KT 31/05 A2977 RMK A01 T03120046  RH  019%=      5-min Rain = 0
KUM1 242125Z 27005KT 31/04 A2977 RMK A01 T03090044  RH  019%=      5-min Rain = 0
KUM1 242126Z 26010KT 31/05 A2977 RMK A01 T03080045  RH  019%=      5-min Rain = 0
KUM1 242127Z 26009KT 31/04 A2977 RMK A01 T03130042  RH  018%=      5-min Rain = 0
KUM1 242128Z 25006KT 31/04 A2977 RMK A01 T03140040  RH  018%=      5-min Rain = 0
KUM1 242129Z 22006KT 32/04 A2976 RMK A01 T03150041  RH  018%=      5-min Rain = 0
KUM1 242130Z 21005KT 32/04 A2976 RMK A01 T03150040  RH  018%=      5-min Rain = 0
KUM1 242131Z 21008KT 31/04 A2976 RMK A01 T03120040  RH  018%=      5-min Rain = 0
KUM1 242132Z 21007KT 31/04 A2976 RMK A01 T03110042  RH  018%=      5-min Rain = 0
KUM1 242133Z 23003KT 31/04 A2976 RMK A01 T03120044  RH  018%=      5-min Rain = 0
KUM1 242134Z 22008KT 31/04 A2976 RMK A01 T03110043  RH  018%=      5-min Rain = 0
KUM1 242135Z 24008KT 31/04 A2976 RMK A01 T03130041  RH  018%=      5-min Rain = 0
KUM1 242136Z 23007KT 31/04 A2976 RMK A01 T03130042  RH  018%=      5-min Rain = 0
KUM1 242137Z 25007KT 32/04 A2976 RMK A01 T03150044  RH  018%=      5-min Rain = 0
KUM1 242138Z 23005KT 32/04 A2976 RMK A01 T03180043  RH  018%=      5-min Rain = 0
KUM1 242139Z 25008KT 32/04 A2976 RMK A01 T03180042  RH  018%=      5-min Rain = 0
KUM1 242140Z 27007KT 32/04 A2976 RMK A01 T03160042  RH  018%=      5-min Rain = 0
KUM1 242141Z 27005KT 31/04 A2976 RMK A01 T03120039  RH  018%=      5-min Rain = 0
KUM1 242142Z 28005KT 31/04 A2976 RMK A01 T03090040  RH  018%=      5-min Rain = 0
KUM1 242143Z 28005KT 31/04 A2976 RMK A01 T03080039  RH  018%=      5-min Rain = 0
KUM1 242144Z 26004KT 31/04 A2976 RMK A01 T03070040  RH  018%=      5-min Rain = 0
KUM1 242145Z 22004KT 31/04 A2976 RMK A01 T03060039  RH  018%=      5-min Rain = 0
KUM1 242146Z 21003KT 31/04 A2976 RMK A01 T03050039  RH  018%=      5-min Rain = 0
KUM1 242147Z 16002KT 30/04 A2976 RMK A01 T03040038  RH  019%=      5-min Rain = 0
KUM1 242148Z 15001KT 30/04 A2976 RMK A01 T03040039  RH  019%=      5-min Rain = 0
KUM1 242149Z 26003G9KT 31/04 A2976 RMK A01 T03050042  RH  019%=      5-min Rain = 0
KUM1 242150Z 26006KT 31/04 A2975 RMK A01 T03070040  RH  018%=      5-min Rain = 0
KUM1 242151Z 25006KT 31/04 A2975 RMK A01 T03060039  RH  018%=      5-min Rain = 0
KUM1 242152Z 24004KT 30/04 A2975 RMK A01 T03040038  RH  018%=      5-min Rain = 0
KUM1 242153Z 26003KT 30/04 A2975 RMK A01 T03020039  RH  019%=      5-min Rain = 0
KUM1 242154Z 28004KT 30/04 A2975 RMK A01 T03020038  RH  019%=      5-min Rain = 0
KUM1 242155Z 27001KT 30/04 A2975 RMK A01 T03020038  RH  019%=      5-min Rain = 0
KUM1 242156Z 28001KT 30/04 A2975 RMK A01 T03020039  RH  019%=      5-min Rain = 0
KUM1 242157Z 01000KT 30/04 A2975 RMK A01 T03030038  RH  019%=      5-min Rain = 0
KUM1 242158Z 00001KT 30/04 A2975 RMK A01 T03030039  RH  019%=      5-min Rain = 0
KUM1 242159Z 35001KT 30/04 A2975 RMK A01 T03040038  RH  018%=      5-min Rain = 0
KUM1 242200Z 31003KT 30/04 A2975 RMK A01 T03040038  RH  018%=      5-min Rain = 0
KUM1 242201Z 29003KT 30/04 A2975 RMK A01 T03030038  RH  019%=      5-min Rain = 0
KUM1 242202Z 28002KT 30/04 A2975 RMK A01 T03010037  RH  019%=      5-min Rain = 0
KUM1 242203Z 25003KT 30/04 A2975 RMK A01 T03000036  RH  019%=      5-min Rain = 0
KUM1 242204Z 27002KT 30/04 A2975 RMK A01 T02990037  RH  019%=      5-min Rain = 0
KUM1 242205Z 18002KT 30/04 A2975 RMK A01 T02990038  RH  019%=      5-min Rain = 0
KUM1 242206Z 17003KT 30/04 A2975 RMK A01 T02990037  RH  019%=      5-min Rain = 0
KUM1 242207Z 18005KT 30/04 A2975 RMK A01 T02990039  RH  019%=      5-min Rain = 0
KUM1 242208Z 19006KT 30/04 A2975 RMK A01 T02990040  RH  019%=      5-min Rain = 0
KUM1 242209Z 20008KT 30/04 A2975 RMK A01 T02990041  RH  019%=      5-min Rain = 0
KUM1 242210Z 20009KT 30/04 A2975 RMK A01 T03000042  RH  019%=      5-min Rain = 0
KUM1 242211Z 23010KT 30/04 A2974 RMK A01 T02990042  RH  019%=      5-min Rain = 0
KUM1 242212Z 21012KT 30/04 A2974 RMK A01 T03000042  RH  019%=      5-min Rain = 0
KUM1 242213Z 22011KT 30/04 A2974 RMK A01 T03010041  RH  019%=      5-min Rain = 0
KUM1 242214Z 22011KT 30/04 A2974 RMK A01 T03010041  RH  019%=      5-min Rain = 0
KUM1 242215Z 20010KT 30/04 A2974 RMK A01 T03020043  RH  019%=      5-min Rain = 0
KUM1 242216Z 20009KT 30/04 A2974 RMK A01 T03020038  RH  019%=      5-min Rain = 0
KUM1 242217Z 22006KT 30/04 A2974 RMK A01 T03000038  RH  019%=      5-min Rain = 0
KUM1 242218Z 22004KT 30/04 A2974 RMK A01 T03000037  RH  019%=      5-min Rain = 0
KUM1 242219Z 21002KT 30/04 A2974 RMK A01 T03000038  RH  019%=      5-min Rain = 0
KUM1 242220Z 25001KT 30/04 A2974 RMK A01 T03010038  RH  019%=      5-min Rain = 0
KUM1 242221Z 26000KT 30/04 A2974 RMK A01 T03020038  RH  019%=      5-min Rain = 0
KUM1 242222Z 28000KT 30/04 A2974 RMK A01 T03020035  RH  018%=      5-min Rain = 0
KUM1 242223Z 27000KT 30/04 A2974 RMK A01 T03020036  RH  018%=      5-min Rain = 0
KUM1 242224Z 00000KT 30/04 A2974 RMK A01 T03010035  RH  018%=      5-min Rain = 0
KUM1 242225Z 12000KT 30/04 A2974 RMK A01 T03010037  RH  019%=      5-min Rain = 0
KUM1 242226Z 14002KT 30/04 A2974 RMK A01 T03020038  RH  019%=      5-min Rain = 0
KUM1 242227Z 14003KT 30/04 A2974 RMK A01 T03030038  RH  019%=      5-min Rain = 0
KUM1 242228Z 16003KT 30/04 A2974 RMK A01 T03030035  RH  018%=      5-min Rain = 0
KUM1 242229Z 16005KT 30/04 A2974 RMK A01 T03030036  RH  018%=      5-min Rain = 0
KUM1 242230Z 15008G14KT 30/04 A2975 RMK A01 T03030038  RH  019%=      5-min Rain = 0
KUM1 242231Z 15018KT 30/05 A2975 RMK A01 T03020049  RH  020%=      5-min Rain = 0
KUM1 242232Z 15016KT 29/06 A2974 RMK A01 T02940055  RH  022%=      5-min Rain = 0
KUM1 242233Z 16014KT 29/06 A2974 RMK A01 T02890058  RH  023%=      5-min Rain = 0
KUM1 242234Z 17015KT 29/06 A2974 RMK A01 T02870058  RH  023%=      5-min Rain = 0
KUM1 242235Z 18016KT 28/06 A2974 RMK A01 T02840057  RH  024%=      5-min Rain = 0
KUM1 242236Z 17014KT 28/06 A2974 RMK A01 T02820057  RH  024%=      5-min Rain = 0
KUM1 242237Z 17008KT 28/06 A2974 RMK A01 T02820059  RH  024%=      5-min Rain = 0
KUM1 242238Z 17009KT 28/06 A2974 RMK A01 T02830061  RH  024%=      5-min Rain = 0
KUM1 242239Z 18009G17KT 28/06 A2974 RMK A01 T02840061  RH  024%=      5-min Rain = 0
KUM1 242240Z 16014KT 28/06 A2973 RMK A01 T02830061  RH  024%=      5-min Rain = 0
KUM1 242241Z 16016KT 28/06 A2973 RMK A01 T02820061  RH  025%=      5-min Rain = 0
KUM1 242242Z 16013KT 28/06 A2973 RMK A01 T02820061  RH  025%=      5-min Rain = 0
KUM1 242243Z 17013KT 28/06 A2973 RMK A01 T02820062  RH  025%=      5-min Rain = 0
KUM1 242244Z 17010KT 28/06 A2973 RMK A01 T02810061  RH  025%=      5-min Rain = 0
KUM1 242245Z 16011KT 28/06 A2973 RMK A01 T02810062  RH  025%=      5-min Rain = 0
KUM1 242246Z 17010KT 28/06 A2973 RMK A01 T02810062  RH  025%=      5-min Rain = 0
KUM1 242247Z 16011KT 28/06 A2973 RMK A01 T02810064  RH  025%=      5-min Rain = 0
KUM1 242248Z 15013KT 28/07 A2973 RMK A01 T02820066  RH  025%=      5-min Rain = 0
KUM1 242249Z 16014KT 28/07 A2973 RMK A01 T02830066  RH  025%=      5-min Rain = 0
KUM1 242250Z 17011KT 28/07 A2973 RMK A01 T02830067  RH  025%=      5-min Rain = 0
KUM1 242251Z 17013KT 28/07 A2973 RMK A01 T02840069  RH  026%=      5-min Rain = 0
KUM1 242252Z 18012KT 28/07 A2973 RMK A01 T02840069  RH  026%=      5-min Rain = 0
KUM1 242253Z 17012KT 28/07 A2973 RMK A01 T02840068  RH  026%=      5-min Rain = 0
KUM1 242254Z 17012KT 28/07 A2973 RMK A01 T02840067  RH  025%=      5-min Rain = 0
KUM1 242255Z 17010KT 28/07 A2973 RMK A01 T02830066  RH  025%=      5-min Rain = 0
KUM1 242256Z 16010KT 28/07 A2973 RMK A01 T02820067  RH  026%=      5-min Rain = 0
KUM1 242257Z 16010KT 28/07 A2973 RMK A01 T02830067  RH  025%=      5-min Rain = 0
KUM1 242258Z 16010KT 28/07 A2973 RMK A01 T02830065  RH  025%=      5-min Rain = 0
KUM1 242259Z 15009KT 28/07 A2973 RMK A01 T02830065  RH  025%=      5-min Rain = 0
KUM1 242300Z 15009KT 28/07 A2973 RMK A01 T02830066  RH  025%=      5-min Rain = 0
KUM1 242301Z 15008KT 28/07 A2973 RMK A01 T02830065  RH  025%=      5-min Rain = 0
KUM1 242302Z 16008KT 28/07 A2973 RMK A01 T02830065  RH  025%=      5-min Rain = 0
KUM1 242303Z 15007KT 28/06 A2973 RMK A01 T02820063  RH  025%=      5-min Rain = 0
KUM1 242304Z 15006KT 28/06 A2973 RMK A01 T02810064  RH  025%=      5-min Rain = 0
KUM1 242305Z 16005KT 28/07 A2973 RMK A01 T02810065  RH  025%=      5-min Rain = 0
KUM1 242306Z 16007KT 28/07 A2972 RMK A01 T02820066  RH  026%=      5-min Rain = 0
KUM1 242307Z 13007KT 28/07 A2972 RMK A01 T02820067  RH  026%=      5-min Rain = 0
KUM1 242308Z 13007KT 28/07 A2972 RMK A01 T02830067  RH  026%=      5-min Rain = 0
KUM1 242309Z 14007KT 28/07 A2972 RMK A01 T02820067  RH  026%=      5-min Rain = 0
KUM1 242310Z 14008KT 28/07 A2972 RMK A01 T02830067  RH  026%=      5-min Rain = 0
KUM1 242311Z 14007KT 28/07 A2973 RMK A01 T02820066  RH  025%=      5-min Rain = 0
KUM1 242312Z 14007KT 28/07 A2973 RMK A01 T02810065  RH  025%=      5-min Rain = 0
KUM1 242313Z 14006KT 28/06 A2973 RMK A01 T02810064  RH  025%=      5-min Rain = 0
KUM1 242314Z 14006KT 28/06 A2972 RMK A01 T02810060  RH  025%=      5-min Rain = 0
KUM1 242315Z 13005KT 28/06 A2972 RMK A01 T02800064  RH  025%=      5-min Rain = 0
KUM1 242316Z 12005KT 28/07 A2972 RMK A01 T02800066  RH  026%=      5-min Rain = 0
KUM1 242317Z 13005KT 28/06 A2972 RMK A01 T02790064  RH  026%=      5-min Rain = 0
KUM1 242318Z 13004KT 28/06 A2972 RMK A01 T02790061  RH  025%=      5-min Rain = 0
KUM1 242319Z 13004KT 28/06 A2972 RMK A01 T02790062  RH  025%=      5-min Rain = 0
KUM1 242320Z 12004KT 28/07 A2972 RMK A01 T02790065  RH  026%=      5-min Rain = 0
KUM1 242321Z 12005KT 28/07 A2972 RMK A01 T02790065  RH  026%=      5-min Rain = 0
KUM1 242322Z 13006KT 28/06 A2972 RMK A01 T02790064  RH  026%=      5-min Rain = 0
KUM1 242323Z 13005KT 28/06 A2972 RMK A01 T02790062  RH  025%=      5-min Rain = 0
KUM1 242324Z 13004KT 28/06 A2972 RMK A01 T02780061  RH  025%=      5-min Rain = 0
KUM1 242325Z 12004KT 28/06 A2972 RMK A01 T02780062  RH  025%=      5-min Rain = 0
KUM1 242326Z 11004KT 28/06 A2971 RMK A01 T02780062  RH  025%=      5-min Rain = 0
KUM1 242327Z 11003KT 28/06 A2971 RMK A01 T02780063  RH  025%=      5-min Rain = 0
KUM1 242328Z 10003KT 28/07 A2971 RMK A01 T02780065  RH  026%=      5-min Rain = 0
KUM1 242329Z 11004KT 28/07 A2971 RMK A01 T02770066  RH  026%=      5-min Rain = 0
KUM1 242330Z 11003KT 28/07 A2971 RMK A01 T02770065  RH  026%=      5-min Rain = 0
KUM1 242331Z 12003KT 28/07 A2971 RMK A01 T02770066  RH  026%=      5-min Rain = 0
KUM1 242332Z 12003KT 28/07 A2971 RMK A01 T02770065  RH  026%=      5-min Rain = 0
KUM1 242333Z 13004KT 28/07 A2972 RMK A01 T02760066  RH  026%=      5-min Rain = 0
KUM1 242334Z 14005KT 28/06 A2972 RMK A01 T02770062  RH  026%=      5-min Rain = 0
KUM1 242335Z 13007KT 28/06 A2972 RMK A01 T02770061  RH  025%=      5-min Rain = 0
KUM1 242336Z 15006KT 28/06 A2972 RMK A01 T02770061  RH  025%=      5-min Rain = 0
KUM1 242337Z 16007KT 28/06 A2972 RMK A01 T02780056  RH  024%=      5-min Rain = 0
KUM1 242338Z 16006KT 28/06 A2972 RMK A01 T02780056  RH  024%=      5-min Rain = 0
KUM1 242339Z 16005KT 28/06 A2972 RMK A01 T02780057  RH  025%=      5-min Rain = 0
KUM1 242340Z 17005KT 28/06 A2972 RMK A01 T02780058  RH  025%=      5-min Rain = 0
KUM1 242341Z 17006KT 28/06 A2972 RMK A01 T02780059  RH  025%=      5-min Rain = 0
KUM1 242342Z 17005KT 28/06 A2972 RMK A01 T02780060  RH  025%=      5-min Rain = 0
KUM1 242343Z 18009KT 28/06 A2972 RMK A01 T02780058  RH  025%=      5-min Rain = 0
KUM1 242344Z 18009KT 28/05 A2972 RMK A01 T02780052  RH  024%=      5-min Rain = 0
KUM1 242345Z 18010KT 28/05 A2972 RMK A01 T02790053  RH  024%=      5-min Rain = 0
KUM1 242346Z 18009KT 28/05 A2972 RMK A01 T02790050  RH  023%=      5-min Rain = 0
KUM1 242347Z 17008KT 28/05 A2972 RMK A01 T02790052  RH  024%=      5-min Rain = 0
KUM1 242348Z 17009KT 28/05 A2972 RMK A01 T02800054  RH  024%=      5-min Rain = 0
KUM1 242349Z 17010KT 28/05 A2972 RMK A01 T02790053  RH  024%=      5-min Rain = 0
KUM1 242350Z 17010KT 28/05 A2972 RMK A01 T02790053  RH  024%=      5-min Rain = 0
KUM1 242351Z 18010KT 28/05 A2972 RMK A01 T02790050  RH  023%=      5-min Rain = 0
KUM1 242352Z 18011KT 28/05 A2972 RMK A01 T02790049  RH  023%=      5-min Rain = 0
KUM1 242353Z 17012KT 28/05 A2972 RMK A01 T02790047  RH  023%=      5-min Rain = 0
KUM1 242354Z 18011KT 28/05 A2972 RMK A01 T02780046  RH  023%=      5-min Rain = 0
KUM1 242355Z 18010KT 28/05 A2972 RMK A01 T02780047  RH  023%=      5-min Rain = 0
KUM1 242356Z 18009KT 28/05 A2972 RMK A01 T02780047  RH  023%=      5-min Rain = 0
KUM1 242357Z 18011KT 28/05 A2971 RMK A01 T02780047  RH  023%=      5-min Rain = 0
KUM1 242358Z 18010KT 28/05 A2971 RMK A01 T02780048  RH  023%=      5-min Rain = 0
KUM1 242359Z 18012KT 28/05 A2971 RMK A01 T02780047  RH  023%=      5-min Rain = 0
KUM1 250000Z 17009KT 28/04 A2971 RMK A01 T02780044  RH  022%=      5-min Rain = 0
KUM1 250001Z 18009KT 28/05 A2971 RMK A01 T02770046  RH  023%=      5-min Rain = 0
KUM1 250002Z 18008KT 28/05 A297 RMK A01 T02770047  RH  023%=      5-min Rain = 0
KUM1 250003Z 19007KT 28/05 A297 RMK A01 T02760049  RH  023%=      5-min Rain = 0
KUM1 250004Z 19008KT 28/05 A297 RMK A01 T02770051  RH  024%=      5-min Rain = 0
KUM1 250005Z 17009KT 28/05 A297 RMK A01 T02770051  RH  024%=      5-min Rain = 0
KUM1 250006Z 17008KT 28/05 A297 RMK A01 T02760049  RH  023%=      5-min Rain = 0
KUM1 250007Z 18006KT 28/05 A297 RMK A01 T02760048  RH  023%=      5-min Rain = 0
KUM1 250008Z 18007KT 28/05 A2969 RMK A01 T02760049  RH  024%=      5-min Rain = 0
KUM1 250009Z 18007KT 28/05 A2969 RMK A01 T02750051  RH  024%=      5-min Rain = 0
KUM1 250010Z 18007KT 28/05 A2969 RMK A01 T02750052  RH  024%=      5-min Rain = 0
KUM1 250011Z 18007KT 28/05 A2969 RMK A01 T02750054  RH  024%=      5-min Rain = 0
KUM1 250012Z 19008KT 28/06 A2969 RMK A01 T02750055  RH  025%=      5-min Rain = 0
KUM1 250013Z 18010KT 28/05 A2969 RMK A01 T02750050  RH  024%=      5-min Rain = 0
KUM1 250014Z 18009KT 27/05 A2969 RMK A01 T02740050  RH  024%=      5-min Rain = 0
KUM1 250015Z 18010KT 28/05 A2969 RMK A01 T02750047  RH  023%=      5-min Rain = 0
KUM1 250016Z 19012KT 28/05 A2969 RMK A01 T02750046  RH  023%=      5-min Rain = 0
KUM1 250017Z 19012KT 28/04 A2969 RMK A01 T02750042  RH  023%=      5-min Rain = 0
KUM1 250018Z 18010KT 27/04 A2969 RMK A01 T02740043  RH  023%=      5-min Rain = 0
KUM1 250019Z 19008KT 27/05 A2969 RMK A01 T02740046  RH  023%=      5-min Rain = 0
KUM1 250020Z 19009KT 27/05 A2969 RMK A01 T02740047  RH  023%=      5-min Rain = 0
KUM1 250021Z 19008KT 27/05 A2969 RMK A01 T02740048  RH  024%=      5-min Rain = 0
KUM1 250022Z 19008KT 27/05 A2969 RMK A01 T02740049  RH  024%=      5-min Rain = 0
KUM1 250023Z 19009KT 27/05 A2969 RMK A01 T02730050  RH  024%=      5-min Rain = 0
KUM1 250024Z 19008KT 27/05 A2969 RMK A01 T02730049  RH  024%=      5-min Rain = 0
KUM1 250025Z 18009KT 27/05 A2969 RMK A01 T02730050  RH  024%=      5-min Rain = 0
KUM1 250026Z 19009KT 27/05 A2969 RMK A01 T02730049  RH  024%=      5-min Rain = 0
KUM1 250027Z 19011KT 27/05 A2969 RMK A01 T02720049  RH  024%=      5-min Rain = 0
KUM1 250028Z 19011KT 27/05 A2969 RMK A01 T02720047  RH  024%=      5-min Rain = 0
KUM1 250029Z 18012KT 27/05 A2969 RMK A01 T02710048  RH  024%=      5-min Rain = 0
KUM1 250030Z 19011KT 27/05 A2969 RMK A01 T02710048  RH  024%=      5-min Rain = 0
KUM1 250031Z 19008KT 27/05 A2969 RMK A01 T02700049  RH  024%=      5-min Rain = 0
KUM1 250032Z 19007KT 27/05 A2969 RMK A01 T02700051  RH  025%=      5-min Rain = 0
KUM1 250033Z 19009KT 27/05 A2969 RMK A01 T02700051  RH  025%=      5-min Rain = 0
KUM1 250034Z 19013KT 27/05 A2969 RMK A01 T02700047  RH  024%=      5-min Rain = 0
KUM1 250035Z 19011KT 27/05 A2969 RMK A01 T02690046  RH  024%=      5-min Rain = 0
KUM1 250036Z 19013KT 27/05 A2969 RMK A01 T02680045  RH  024%=      5-min Rain = 0
KUM1 250037Z 18011KT 27/05 A2969 RMK A01 T02680045  RH  024%=      5-min Rain = 0
KUM1 250038Z 19012KT 27/05 A2969 RMK A01 T02670046  RH  024%=      5-min Rain = 0
KUM1 250039Z 18010KT 27/05 A2969 RMK A01 T02670045  RH  024%=      5-min Rain = 0
KUM1 250040Z 18010KT 27/05 A2969 RMK A01 T02660045  RH  024%=      5-min Rain = 0
KUM1 250041Z 18009KT 27/04 A2969 RMK A01 T02660044  RH  024%=      5-min Rain = 0
KUM1 250042Z 18008KT 27/04 A2969 RMK A01 T02650044  RH  024%=      5-min Rain = 0
KUM1 250043Z 18009KT 27/04 A2969 RMK A01 T02650043  RH  024%=      5-min Rain = 0
KUM1 250044Z 17009KT 26/04 A2969 RMK A01 T02640043  RH  024%=      5-min Rain = 0
KUM1 250045Z 17008KT 26/04 A2969 RMK A01 T02630044  RH  024%=      5-min Rain = 0
KUM1 250046Z 17008KT 26/04 A2969 RMK A01 T02620044  RH  025%=      5-min Rain = 0
KUM1 250047Z 17008KT 26/04 A2969 RMK A01 T02610044  RH  025%=      5-min Rain = 0
KUM1 250048Z 16008KT 26/05 A2969 RMK A01 T02600045  RH  025%=      5-min Rain = 0
KUM1 250049Z 16008KT 26/05 A2969 RMK A01 T02590045  RH  025%=      5-min Rain = 0
KUM1 250050Z 16007KT 26/04 A297 RMK A01 T02580044  RH  025%=      5-min Rain = 0
KUM1 250051Z 16008KT 26/04 A297 RMK A01 T02580043  RH  025%=      5-min Rain = 0
KUM1 250052Z 15008KT 26/04 A297 RMK A01 T02570043  RH  025%=      5-min Rain = 0
KUM1 250053Z 16008KT 26/04 A297 RMK A01 T02570042  RH  025%=      5-min Rain = 0
KUM1 250054Z 15008KT 26/04 A297 RMK A01 T02560042  RH  025%=      5-min Rain = 0
KUM1 250055Z 15007KT 26/04 A2971 RMK A01 T02560043  RH  025%=      5-min Rain = 0
KUM1 250056Z 15007KT 26/04 A2971 RMK A01 T02550044  RH  026%=      5-min Rain = 0
KUM1 250057Z 15007KT 25/04 A2971 RMK A01 T02540044  RH  026%=      5-min Rain = 0
KUM1 250058Z 15007KT 25/04 A2971 RMK A01 T02540044  RH  026%=      5-min Rain = 0
KUM1 250059Z 15007KT 25/04 A2971 RMK A01 T02530044  RH  026%=      5-min Rain = 0
KUM1 250100Z 16007KT 25/04 A2971 RMK A01 T02530044  RH  026%=      5-min Rain = 0
KUM1 250101Z 16006KT 25/04 A2971 RMK A01 T02520043  RH  026%=      5-min Rain = 0
KUM1 250102Z 16007KT 25/04 A2971 RMK A01 T02510043  RH  026%=      5-min Rain = 0
KUM1 250103Z 16008KT 25/04 A2971 RMK A01 T02510041  RH  026%=      5-min Rain = 0
KUM1 250104Z 16008KT 25/04 A297 RMK A01 T02510039  RH  025%=      5-min Rain = 0
KUM1 250105Z 16007KT 25/04 A297 RMK A01 T02510040  RH  026%=      5-min Rain = 0
KUM1 250106Z 16007KT 25/04 A297 RMK A01 T02500040  RH  026%=      5-min Rain = 0
KUM1 250107Z 15007KT 25/04 A297 RMK A01 T02490038  RH  025%=      5-min Rain = 0
KUM1 250108Z 15007KT 25/04 A297 RMK A01 T02490038  RH  025%=      5-min Rain = 0
KUM1 250109Z 15006KT 25/04 A297 RMK A01 T02490036  RH  025%=      5-min Rain = 0
KUM1 250110Z 15006KT 25/04 A2969 RMK A01 T02490036  RH  025%=      5-min Rain = 0
KUM1 250111Z 15006KT 25/04 A2969 RMK A01 T02480036  RH  025%=      5-min Rain = 0
KUM1 250112Z 16006KT 25/04 A2969 RMK A01 T02480037  RH  025%=      5-min Rain = 0
KUM1 250113Z 16006KT 25/04 A2969 RMK A01 T02470036  RH  025%=      5-min Rain = 0
KUM1 250114Z 16006KT 25/04 A2969 RMK A01 T02460036  RH  026%=      5-min Rain = 0
KUM1 250115Z 16006KT 25/04 A2969 RMK A01 T02460036  RH  026%=      5-min Rain = 0
KUM1 250116Z 16006KT 25/04 A2969 RMK A01 T02460036  RH  026%=      5-min Rain = 0
KUM1 250117Z 16006KT 25/04 A2969 RMK A01 T02450036  RH  026%=      5-min Rain = 0
KUM1 250118Z 16005KT 25/04 A2969 RMK A01 T02450036  RH  026%=      5-min Rain = 0
KUM1 250119Z 16006KT 24/04 A2969 RMK A01 T02440035  RH  026%=      5-min Rain = 0
KUM1 250120Z 15006KT 24/04 A2969 RMK A01 T02440035  RH  026%=      5-min Rain = 0
KUM1 250121Z 15006KT 24/04 A2969 RMK A01 T02440035  RH  026%=      5-min Rain = 0
KUM1 250122Z 15005KT 24/04 A2969 RMK A01 T02430036  RH  026%=      5-min Rain = 0
KUM1 250123Z 15006KT 24/04 A2969 RMK A01 T02430035  RH  026%=      5-min Rain = 0
KUM1 250124Z 16006KT 24/04 A2969 RMK A01 T02430035  RH  026%=      5-min Rain = 0
KUM1 250125Z 15007KT 24/04 A2969 RMK A01 T02420035  RH  026%=      5-min Rain = 0
KUM1 250126Z 16006KT 24/04 A2969 RMK A01 T02430035  RH  026%=      5-min Rain = 0
KUM1 250127Z 16006KT 24/04 A2969 RMK A01 T02430035  RH  026%=      5-min Rain = 0
KUM1 250128Z 15006KT 24/04 A2969 RMK A01 T02440035  RH  026%=      5-min Rain = 0
KUM1 250129Z 15006KT 24/04 A2969 RMK A01 T02440035  RH  026%=      5-min Rain = 0
KUM1 250130Z 15005KT 24/03 A2968 RMK A01 T02440034  RH  026%=      5-min Rain = 0
KUM1 250131Z 15005KT 25/04 A2968 RMK A01 T02450035  RH  025%=      5-min Rain = 0
KUM1 250132Z 15005KT 25/03 A2968 RMK A01 T02450034  RH  025%=      5-min Rain = 0
KUM1 250133Z 15005KT 25/04 A2968 RMK A01 T02450035  RH  026%=      5-min Rain = 0
KUM1 250134Z 15005KT 25/04 A2968 RMK A01 T02450036  RH  026%=      5-min Rain = 0
KUM1 250135Z 15005KT 25/04 A2968 RMK A01 T02450036  RH  026%=      5-min Rain = 0
KUM1 250136Z 15005KT 24/04 A2968 RMK A01 T02440037  RH  026%=      5-min Rain = 0
KUM1 250137Z 14005KT 24/04 A2968 RMK A01 T02430037  RH  026%=      5-min Rain = 0
KUM1 250138Z 14005KT 24/04 A2968 RMK A01 T02430038  RH  026%=      5-min Rain = 0
KUM1 250139Z 14004KT 24/04 A2968 RMK A01 T02420039  RH  027%=      5-min Rain = 0
KUM1 250140Z 14005KT 24/04 A2968 RMK A01 T02420039  RH  027%=      5-min Rain = 0
KUM1 250141Z 14005KT 24/04 A2968 RMK A01 T02420039  RH  027%=      5-min Rain = 0
KUM1 250142Z 14005KT 24/04 A2968 RMK A01 T02410041  RH  027%=      5-min Rain = 0
KUM1 250143Z 14005KT 24/04 A2968 RMK A01 T02400042  RH  028%=      5-min Rain = 0
KUM1 250144Z 14006KT 24/04 A2969 RMK A01 T02390042  RH  028%=      5-min Rain = 0
KUM1 250145Z 14006KT 24/04 A2969 RMK A01 T02390043  RH  028%=      5-min Rain = 0
KUM1 250146Z 13006KT 24/04 A2969 RMK A01 T02380044  RH  028%=      5-min Rain = 0
KUM1 250147Z 13006KT 24/05 A2969 RMK A01 T02370045  RH  029%=      5-min Rain = 0
KUM1 250148Z 12006KT 24/04 A2969 RMK A01 T02360044  RH  029%=      5-min Rain = 0
KUM1 250149Z 10006KT 24/05 A297 RMK A01 T02360045  RH  029%=      5-min Rain = 0
KUM1 250150Z 11005KT 24/05 A297 RMK A01 T02350046  RH  029%=      5-min Rain = 0
KUM1 250151Z 12005KT 23/05 A297 RMK A01 T02340046  RH  029%=      5-min Rain = 0
KUM1 250152Z 12005KT 23/05 A297 RMK A01 T02330046  RH  030%=      5-min Rain = 0
KUM1 250153Z 13005KT 23/05 A297 RMK A01 T02330047  RH  030%=      5-min Rain = 0
KUM1 250154Z 13005KT 23/05 A297 RMK A01 T02310046  RH  030%=      5-min Rain = 0
KUM1 250155Z 13005KT 23/05 A297 RMK A01 T02310046  RH  030%=      5-min Rain = 0
KUM1 250156Z 13005KT 23/04 A297 RMK A01 T02300044  RH  030%=      5-min Rain = 0
KUM1 250157Z 13004KT 23/04 A297 RMK A01 T02300044  RH  030%=      5-min Rain = 0
KUM1 250158Z 13005KT 23/04 A297 RMK A01 T02300043  RH  030%=      5-min Rain = 0
KUM1 250159Z 13005KT 23/04 A2969 RMK A01 T02300044  RH  030%=      5-min Rain = 0
KUM1 250200Z 13005KT 23/04 A2969 RMK A01 T02300044  RH  030%=      5-min Rain = 0
KUM1 250201Z 14005KT 23/05 A2969 RMK A01 T02290045  RH  030%=      5-min Rain = 0
KUM1 250202Z 14005KT 23/05 A2969 RMK A01 T02280045  RH  030%=      5-min Rain = 0
KUM1 250203Z 15006KT 23/05 A297 RMK A01 T02270045  RH  030%=      5-min Rain = 0
KUM1 250204Z 15006KT 23/04 A297 RMK A01 T02270044  RH  030%=      5-min Rain = 0
KUM1 250205Z 14007KT 23/04 A297 RMK A01 T02260043  RH  030%=      5-min Rain = 0
KUM1 250206Z 14008KT 23/04 A297 RMK A01 T02270039  RH  029%=      5-min Rain = 0
KUM1 250207Z 14009KT 23/04 A297 RMK A01 T02290038  RH  029%=      5-min Rain = 0
KUM1 250208Z 13009KT 23/04 A297 RMK A01 T02300035  RH  028%=      5-min Rain = 0
KUM1 250209Z 13009KT 23/04 A297 RMK A01 T02320035  RH  028%=      5-min Rain = 0
KUM1 250210Z 14008KT 23/04 A2971 RMK A01 T02330035  RH  027%=      5-min Rain = 0
KUM1 250211Z 14009KT 23/04 A2971 RMK A01 T02340036  RH  027%=      5-min Rain = 0
KUM1 250212Z 15009KT 23/04 A2971 RMK A01 T02330036  RH  028%=      5-min Rain = 0
KUM1 250213Z 15009KT 23/04 A2971 RMK A01 T02330036  RH  028%=      5-min Rain = 0
KUM1 250214Z 16009KT 23/04 A2971 RMK A01 T02320036  RH  028%=      5-min Rain = 0
KUM1 250215Z 15009KT 23/04 A2971 RMK A01 T02320037  RH  028%=      5-min Rain = 0
KUM1 250216Z 14010KT 23/04 A2971 RMK A01 T02320038  RH  028%=      5-min Rain = 0
KUM1 250217Z 14010KT 23/04 A2971 RMK A01 T02310038  RH  028%=      5-min Rain = 0
KUM1 250218Z 15011KT 23/04 A2971 RMK A01 T02300039  RH  029%=      5-min Rain = 0
KUM1 250219Z 15010KT 23/04 A2971 RMK A01 T02300039  RH  029%=      5-min Rain = 0
KUM1 250220Z 14012KT 23/04 A2971 RMK A01 T02290040  RH  029%=      5-min Rain = 0
KUM1 250221Z 14012KT 23/04 A2971 RMK A01 T02290038  RH  029%=      5-min Rain = 0
KUM1 250222Z 14011KT 23/04 A2971 RMK A01 T02300039  RH  029%=      5-min Rain = 0
KUM1 250223Z 13010KT 23/04 A2971 RMK A01 T02300040  RH  029%=      5-min Rain = 0
KUM1 250224Z 13010KT 23/04 A2971 RMK A01 T02290039  RH  029%=      5-min Rain = 0
KUM1 250225Z 13009KT 23/04 A2971 RMK A01 T02290039  RH  029%=      5-min Rain = 0
KUM1 250226Z 13009KT 23/04 A2971 RMK A01 T02290040  RH  029%=      5-min Rain = 0
KUM1 250227Z 12009KT 23/04 A2971 RMK A01 T02290039  RH  029%=      5-min Rain = 0
KUM1 250228Z 12009KT 23/04 A2971 RMK A01 T02290040  RH  029%=      5-min Rain = 0
KUM1 250229Z 12009KT 23/04 A2971 RMK A01 T02280040  RH  029%=      5-min Rain = 0
KUM1 250230Z 12008KT 23/04 A2971 RMK A01 T02270040  RH  029%=      5-min Rain = 0
KUM1 250231Z 12008KT 23/04 A2971 RMK A01 T02260040  RH  030%=      5-min Rain = 0
KUM1 250232Z 12009KT 23/04 A2971 RMK A01 T02260041  RH  030%=      5-min Rain = 0
KUM1 250233Z 12008KT 23/04 A2971 RMK A01 T02250041  RH  030%=      5-min Rain = 0
KUM1 250234Z 12008KT 23/04 A2971 RMK A01 T02250041  RH  030%=      5-min Rain = 0
KUM1 250235Z 12008KT 22/04 A2971 RMK A01 T02240042  RH  030%=      5-min Rain = 0
KUM1 250236Z 12008KT 22/04 A2971 RMK A01 T02230042  RH  031%=      5-min Rain = 0
KUM1 250237Z 12008KT 22/04 A2972 RMK A01 T02230042  RH  031%=      5-min Rain = 0
KUM1 250238Z 12008KT 22/04 A2972 RMK A01 T02220043  RH  031%=      5-min Rain = 0
KUM1 250239Z 12009KT 22/04 A2972 RMK A01 T02220043  RH  031%=      5-min Rain = 0
KUM1 250240Z 12009KT 22/04 A2972 RMK A01 T02210043  RH  031%=      5-min Rain = 0
KUM1 250241Z 12009KT 22/04 A2972 RMK A01 T02210044  RH  031%=      5-min Rain = 0
KUM1 250242Z 12010KT 22/04 A2972 RMK A01 T02210044  RH  031%=      5-min Rain = 0
KUM1 250243Z 12009KT 22/04 A2972 RMK A01 T02210044  RH  032%=      5-min Rain = 0
KUM1 250244Z 12008KT 22/04 A2972 RMK A01 T02200044  RH  032%=      5-min Rain = 0
KUM1 250245Z 12009KT 22/05 A2973 RMK A01 T02200045  RH  032%=      5-min Rain = 0
KUM1 250246Z 12008KT 22/05 A2973 RMK A01 T02190045  RH  032%=      5-min Rain = 0
KUM1 250247Z 12008KT 22/05 A2973 RMK A01 T02190046  RH  032%=      5-min Rain = 0
KUM1 250248Z 12008KT 22/05 A2973 RMK A01 T02170046  RH  033%=      5-min Rain = 0
KUM1 250249Z 12008KT 22/05 A2973 RMK A01 T02160047  RH  033%=      5-min Rain = 0
KUM1 250250Z 12008KT 22/05 A2973 RMK A01 T02150047  RH  033%=      5-min Rain = 0
KUM1 250251Z 12008KT 22/05 A2973 RMK A01 T02150048  RH  034%=      5-min Rain = 0
KUM1 250252Z 12008KT 21/05 A2973 RMK A01 T02140048  RH  034%=      5-min Rain = 0
KUM1 250253Z 12007KT 21/05 A2973 RMK A01 T02140048  RH  034%=      5-min Rain = 0
KUM1 250254Z 12007KT 21/05 A2973 RMK A01 T02140049  RH  034%=      5-min Rain = 0
KUM1 250255Z 12007KT 21/05 A2973 RMK A01 T02130049  RH  034%=      5-min Rain = 0
KUM1 250256Z 11006KT 21/05 A2973 RMK A01 T02130049  RH  034%=      5-min Rain = 0
KUM1 250257Z 10005KT 21/05 A2972 RMK A01 T02130050  RH  034%=      5-min Rain = 0
KUM1 250258Z 11004KT 21/05 A2972 RMK A01 T02130050  RH  034%=      5-min Rain = 0
KUM1 250259Z 10007KT 21/05 A2973 RMK A01 T02120050  RH  035%=      5-min Rain = 0
KUM1 250300Z 10008KT 21/05 A2973 RMK A01 T02120050  RH  035%=      5-min Rain = 0
KUM1 250301Z 09009KT 21/05 A2973 RMK A01 T02120050  RH  035%=      5-min Rain = 0
KUM1 250302Z 10008KT 21/05 A2973 RMK A01 T02130050  RH  034%=      5-min Rain = 0
KUM1 250303Z 10008KT 21/05 A2973 RMK A01 T02140050  RH  034%=      5-min Rain = 0
KUM1 250304Z 10007KT 22/05 A2973 RMK A01 T02150050  RH  034%=      5-min Rain = 0
KUM1 250305Z 09007KT 22/05 A2973 RMK A01 T02150051  RH  034%=      5-min Rain = 0
KUM1 250306Z 10007KT 21/05 A2973 RMK A01 T02140050  RH  034%=      5-min Rain = 0
KUM1 250307Z 09007KT 21/05 A2972 RMK A01 T02140050  RH  034%=      5-min Rain = 0
KUM1 250308Z 09008KT 21/05 A2972 RMK A01 T02140050  RH  034%=      5-min Rain = 0
KUM1 250309Z 10009KT 21/05 A2972 RMK A01 T02140051  RH  034%=      5-min Rain = 0
KUM1 250310Z 10009KT 21/05 A2972 RMK A01 T02140051  RH  035%=      5-min Rain = 0
KUM1 250311Z 10007KT 22/05 A2972 RMK A01 T02150052  RH  035%=      5-min Rain = 0
KUM1 250312Z 11007KT 21/05 A2972 RMK A01 T02140053  RH  035%=      5-min Rain = 0
KUM1 250313Z 12007KT 21/05 A2972 RMK A01 T02140053  RH  035%=      5-min Rain = 0
KUM1 250314Z 12007KT 21/05 A2972 RMK A01 T02140053  RH  035%=      5-min Rain = 0
KUM1 250315Z 12006KT 21/05 A2972 RMK A01 T02140054  RH  035%=      5-min Rain = 0
KUM1 250316Z 12006KT 21/05 A2972 RMK A01 T02130054  RH  035%=      5-min Rain = 0
KUM1 250317Z 12006KT 21/05 A2972 RMK A01 T02120054  RH  036%=      5-min Rain = 0
KUM1 250318Z 12006KT 21/06 A2972 RMK A01 T02110055  RH  036%=      5-min Rain = 0
KUM1 250319Z 11007KT 21/06 A2972 RMK A01 T02090055  RH  036%=      5-min Rain = 0
KUM1 250320Z 10006KT 21/06 A2972 RMK A01 T02090056  RH  037%=      5-min Rain = 0
KUM1 250321Z 10005KT 21/06 A2972 RMK A01 T02080056  RH  037%=      5-min Rain = 0
KUM1 250322Z 11005KT 21/06 A2972 RMK A01 T02080056  RH  037%=      5-min Rain = 0
KUM1 250323Z 11006KT 21/06 A2972 RMK A01 T02080057  RH  037%=      5-min Rain = 0
KUM1 250324Z 12006KT 21/06 A2972 RMK A01 T02070057  RH  037%=      5-min Rain = 0
KUM1 250325Z 11005KT 21/06 A2972 RMK A01 T02070057  RH  038%=      5-min Rain = 0
KUM1 250326Z 11006KT 21/06 A2972 RMK A01 T02070057  RH  038%=      5-min Rain = 0
KUM1 250327Z 11006KT 21/06 A2972 RMK A01 T02070058  RH  038%=      5-min Rain = 0
KUM1 250328Z 11006KT 21/06 A2972 RMK A01 T02070057  RH  038%=      5-min Rain = 0
KUM1 250329Z 11005KT 21/06 A2972 RMK A01 T02070058  RH  038%=      5-min Rain = 0
KUM1 250330Z 12005KT 21/06 A2972 RMK A01 T02070058  RH  038%=      5-min Rain = 0
KUM1 250331Z 11006KT 21/06 A2972 RMK A01 T02070059  RH  038%=      5-min Rain = 0
KUM1 250332Z 11007KT 21/06 A2972 RMK A01 T02060059  RH  038%=      5-min Rain = 0
KUM1 250333Z 11006KT 21/06 A2972 RMK A01 T02050059  RH  039%=      5-min Rain = 0
KUM1 250334Z 11006KT 21/06 A2972 RMK A01 T02050060  RH  039%=      5-min Rain = 0
KUM1 250335Z 11007KT 21/06 A2973 RMK A01 T02050060  RH  039%=      5-min Rain = 0
KUM1 250336Z 11006KT 21/06 A2973 RMK A01 T02050061  RH  039%=      5-min Rain = 0
KUM1 250337Z 11006KT 20/06 A2973 RMK A01 T02040061  RH  039%=      5-min Rain = 0
KUM1 250338Z 10005KT 20/06 A2973 RMK A01 T02040061  RH  039%=      5-min Rain = 0
KUM1 250339Z 10006KT 20/06 A2973 RMK A01 T02030061  RH  040%=      5-min Rain = 0
KUM1 250340Z 10005KT 20/06 A2973 RMK A01 T02020061  RH  040%=      5-min Rain = 0
KUM1 250341Z 11005KT 20/06 A2973 RMK A01 T02010062  RH  040%=      5-min Rain = 0
KUM1 250342Z 10005KT 20/06 A2973 RMK A01 T02000062  RH  040%=      5-min Rain = 0
KUM1 250343Z 10005KT 20/06 A2973 RMK A01 T01990062  RH  041%=      5-min Rain = 0
KUM1 250344Z 09008KT 20/06 A2974 RMK A01 T01980062  RH  041%=      5-min Rain = 0
KUM1 250345Z 09007KT 20/06 A2974 RMK A01 T01980062  RH  041%=      5-min Rain = 0
KUM1 250346Z 09008KT 20/06 A2974 RMK A01 T01970062  RH  041%=      5-min Rain = 0
KUM1 250347Z 10008KT 20/06 A2974 RMK A01 T01970062  RH  041%=      5-min Rain = 0
KUM1 250348Z 10006KT 20/06 A2974 RMK A01 T01980061  RH  041%=      5-min Rain = 0
KUM1 250349Z 09006KT 20/06 A2974 RMK A01 T01980061  RH  041%=      5-min Rain = 0
KUM1 250350Z 09008KT 20/06 A2974 RMK A01 T01990062  RH  041%=      5-min Rain = 0
KUM1 250351Z 10010KT 20/06 A2974 RMK A01 T02000062  RH  041%=      5-min Rain = 0
KUM1 250352Z 10011KT 20/06 A2974 RMK A01 T02010062  RH  040%=      5-min Rain = 0
KUM1 250353Z 10009KT 20/06 A2974 RMK A01 T02020062  RH  040%=      5-min Rain = 0
KUM1 250354Z 10008KT 20/06 A2974 RMK A01 T02020062  RH  040%=      5-min Rain = 0
KUM1 250355Z 10009KT 20/06 A2974 RMK A01 T02010063  RH  041%=      5-min Rain = 0
KUM1 250356Z 10008KT 20/06 A2974 RMK A01 T02000063  RH  041%=      5-min Rain = 0
KUM1 250357Z 10007KT 20/06 A2974 RMK A01 T02000063  RH  041%=      5-min Rain = 0
KUM1 250358Z 10007KT 20/06 A2974 RMK A01 T02000063  RH  041%=      5-min Rain = 0
KUM1 250359Z 09010KT 20/07 A2974 RMK A01 T02000065  RH  041%=      5-min Rain = 0
KUM1 250400Z 10009KT 20/07 A2974 RMK A01 T02000067  RH  042%=      5-min Rain = 0
KUM1 250401Z 10007KT 20/07 A2974 RMK A01 T02000068  RH  042%=      5-min Rain = 0
KUM1 250402Z 10009KT 20/07 A2974 RMK A01 T02000068  RH  042%=      5-min Rain = 0
KUM1 250403Z 10012KT 20/07 A2974 RMK A01 T02000070  RH  043%=      5-min Rain = 0
KUM1 250404Z 09010KT 20/07 A2974 RMK A01 T02000071  RH  043%=      5-min Rain = 0
KUM1 250405Z 10010KT 20/07 A2974 RMK A01 T02000072  RH  043%=      5-min Rain = 0
KUM1 250406Z 10010KT 20/07 A2974 RMK A01 T02000074  RH  044%=      5-min Rain = 0
KUM1 250407Z 09009KT 20/08 A2974 RMK A01 T01990075  RH  045%=      5-min Rain = 0
KUM1 250408Z 09009KT 20/08 A2974 RMK A01 T01990076  RH  045%=      5-min Rain = 0
KUM1 250409Z 09009KT 20/08 A2974 RMK A01 T01980076  RH  045%=      5-min Rain = 0
KUM1 250410Z 09009KT 20/08 A2974 RMK A01 T01980076  RH  045%=      5-min Rain = 0
KUM1 250411Z 09011KT 20/08 A2974 RMK A01 T01980078  RH  046%=      5-min Rain = 0
KUM1 250412Z 09009KT 20/08 A2974 RMK A01 T01980078  RH  046%=      5-min Rain = 0
KUM1 250413Z 09008KT 20/08 A2973 RMK A01 T01980078  RH  046%=      5-min Rain = 0
KUM1 250414Z 09008KT 20/08 A2973 RMK A01 T01980078  RH  046%=      5-min Rain = 0
KUM1 250415Z 10009KT 20/08 A2973 RMK A01 T01970078  RH  046%=      5-min Rain = 0
KUM1 250416Z 09008KT 20/08 A2974 RMK A01 T01970079  RH  046%=      5-min Rain = 0
KUM1 250417Z 09008KT 20/08 A2974 RMK A01 T01970079  RH  046%=      5-min Rain = 0
KUM1 250418Z 09007KT 20/08 A2974 RMK A01 T01960079  RH  047%=      5-min Rain = 0
KUM1 250419Z 10008KT 20/08 A2974 RMK A01 T01960079  RH  047%=      5-min Rain = 0
KUM1 250420Z 09007KT 20/08 A2974 RMK A01 T01960080  RH  047%=      5-min Rain = 0
KUM1 250421Z 10007KT 20/08 A2974 RMK A01 T01950080  RH  047%=      5-min Rain = 0
KUM1 250422Z 09007KT 20/08 A2974 RMK A01 T01950080  RH  047%=      5-min Rain = 0
KUM1 250423Z 10007KT 20/08 A2974 RMK A01 T01950081  RH  048%=      5-min Rain = 0
KUM1 250424Z 09006KT 19/08 A2974 RMK A01 T01940081  RH  048%=      5-min Rain = 0
KUM1 250425Z 10007KT 19/08 A2974 RMK A01 T01930081  RH  048%=      5-min Rain = 0
KUM1 250426Z 09006KT 19/08 A2974 RMK A01 T01920082  RH  049%=      5-min Rain = 0
KUM1 250427Z 10006KT 19/08 A2974 RMK A01 T01920082  RH  049%=      5-min Rain = 0
KUM1 250428Z 10006KT 19/08 A2974 RMK A01 T01910082  RH  049%=      5-min Rain = 0
KUM1 250429Z 09006KT 19/08 A2974 RMK A01 T01910083  RH  049%=      5-min Rain = 0
KUM1 250430Z 09006KT 19/08 A2974 RMK A01 T01910083  RH  049%=      5-min Rain = 0
KUM1 250431Z 09007KT 19/08 A2974 RMK A01 T01900083  RH  050%=      5-min Rain = 0
KUM1 250432Z 10008KT 19/08 A2974 RMK A01 T01900084  RH  050%=      5-min Rain = 0
KUM1 250433Z 10006KT 19/09 A2974 RMK A01 T01900085  RH  050%=      5-min Rain = 0
KUM1 250434Z 09007KT 19/08 A2974 RMK A01 T01900084  RH  050%=      5-min Rain = 0
KUM1 250435Z 10006KT 19/09 A2974 RMK A01 T01890085  RH  051%=      5-min Rain = 0
KUM1 250436Z 10004KT 19/09 A2974 RMK A01 T01890085  RH  051%=      5-min Rain = 0
KUM1 250437Z 10004KT 19/09 A2974 RMK A01 T01890085  RH  051%=      5-min Rain = 0
KUM1 250438Z 10004KT 19/09 A2974 RMK A01 T01880086  RH  051%=      5-min Rain = 0
KUM1 250439Z 10004KT 19/09 A2975 RMK A01 T01880086  RH  051%=      5-min Rain = 0
KUM1 250440Z 10005KT 19/09 A2975 RMK A01 T01870086  RH  052%=      5-min Rain = 0
KUM1 250441Z 10004KT 19/09 A2975 RMK A01 T01870087  RH  052%=      5-min Rain = 0
KUM1 250442Z 10006KT 19/09 A2975 RMK A01 T01860088  RH  053%=      5-min Rain = 0
KUM1 250443Z 11005KT 19/09 A2975 RMK A01 T01850090  RH  054%=      5-min Rain = 0
KUM1 250444Z 11006KT 19/09 A2976 RMK A01 T01850092  RH  055%=      5-min Rain = 0
KUM1 250445Z 10006KT 18/09 A2976 RMK A01 T01840093  RH  055%=      5-min Rain = 0
KUM1 250446Z 10006KT 18/09 A2976 RMK A01 T01840094  RH  056%=      5-min Rain = 0
KUM1 250447Z 11007KT 18/10 A2976 RMK A01 T01830095  RH  056%=      5-min Rain = 0
KUM1 250448Z 12007KT 18/10 A2976 RMK A01 T01830097  RH  057%=      5-min Rain = 0
KUM1 250449Z 11008KT 18/10 A2976 RMK A01 T01830098  RH  058%=      5-min Rain = 0
KUM1 250450Z 12008KT 18/10 A2976 RMK A01 T01840100  RH  058%=      5-min Rain = 0
KUM1 250451Z 12008KT 18/10 A2976 RMK A01 T01840101  RH  058%=      5-min Rain = 0
KUM1 250452Z 12008KT 18/10 A2976 RMK A01 T01840101  RH  058%=      5-min Rain = 0
KUM1 250453Z 11007KT 19/10 A2976 RMK A01 T01850102  RH  059%=      5-min Rain = 0
KUM1 250454Z 09007KT 19/10 A2976 RMK A01 T01850102  RH  059%=      5-min Rain = 0
KUM1 250455Z 08008KT 19/10 A2976 RMK A01 T01850103  RH  059%=      5-min Rain = 0
KUM1 250456Z 08008KT 18/10 A2976 RMK A01 T01840101  RH  058%=      5-min Rain = 0
KUM1 250457Z 09009KT 18/10 A2976 RMK A01 T01830099  RH  058%=      5-min Rain = 0
KUM1 250458Z 09010KT 18/10 A2976 RMK A01 T01830097  RH  057%=      5-min Rain = 0
KUM1 250459Z 09011KT 18/10 A2977 RMK A01 T01830096  RH  057%=      5-min Rain = 0

Page generated in 0.0775 seconds.